EAG5536 SKBO-GOBD
Flight info
| Callsign | EAG5536 |
|---|---|
| Flight time | 6h 59m |
| Altitude | 41000 |
| Route | MAVDA DCT AUC DCT SFD DCT MUN DCT POS DCT NOSOB DCT TUTLO DCT LUMPO |
| Aircraft | B789/H-SDE1E2E3FGHIJ2J3J4J5M1RWXY/LB1D1 |
Departure
| Time | 2026-04-25 16:31 |
|---|---|
| Airport | El Dorado International Airport (SKBO) |
Arrival
| Time | 2026-04-25 23:30 |
|---|---|
| Airport | Blaise Diagne International Airport (GOBD) |
| Time | Latitude | Longitude | Altitude | Speed | Heading |
|---|---|---|---|---|---|
| 2026-04-25 16:14 | 4.70059 | -74.14232 | 8375 ft | 0 kts | 217° |
| 2026-04-25 16:18 | 4.70073 | -74.14221 | 8372 ft | 3 kts | 217° |
| 2026-04-25 16:18 | 4.70090 | -74.14208 | 8373 ft | 3 kts | 217° |
| 2026-04-25 16:19 | 4.70106 | -74.14196 | 8375 ft | 2 kts | 217° |
| 2026-04-25 16:19 | 4.70117 | -74.14187 | 8375 ft | 3 kts | 227° |
| 2026-04-25 16:19 | 4.70126 | -74.14173 | 8373 ft | 3 kts | 278° |
| 2026-04-25 16:20 | 4.70110 | -74.14148 | 8372 ft | 0 kts | 307° |
| 2026-04-25 16:21 | 4.70119 | -74.14160 | 8375 ft | 4 kts | 307° |
| 2026-04-25 16:21 | 4.70146 | -74.14195 | 8375 ft | 9 kts | 307° |
| 2026-04-25 16:22 | 4.70175 | -74.14221 | 8374 ft | 3 kts | 334° |
| 2026-04-25 16:22 | 4.70192 | -74.14221 | 8372 ft | 3 kts | 3° |
| 2026-04-25 16:22 | 4.70225 | -74.14213 | 8374 ft | 7 kts | 10° |
| 2026-04-25 16:22 | 4.70255 | -74.14221 | 8375 ft | 2 kts | 318° |
| 2026-04-25 16:23 | 4.70276 | -74.14247 | 8375 ft | 10 kts | 308° |
| 2026-04-25 16:23 | 4.70336 | -74.14322 | 8375 ft | 15 kts | 317° |
| 2026-04-25 16:23 | 4.70393 | -74.14336 | 8374 ft | 9 kts | 9° |
| 2026-04-25 16:23 | 4.70438 | -74.14347 | 8373 ft | 5 kts | 321° |
| 2026-04-25 16:24 | 4.70465 | -74.14382 | 8374 ft | 11 kts | 308° |
| 2026-04-25 16:24 | 4.70531 | -74.14466 | 8375 ft | 20 kts | 307° |
| 2026-04-25 16:24 | 4.70612 | -74.14575 | 8376 ft | 19 kts | 307° |
| 2026-04-25 16:24 | 4.70690 | -74.14678 | 8375 ft | 18 kts | 307° |
| 2026-04-25 16:25 | 4.70765 | -74.14777 | 8373 ft | 17 kts | 307° |
| 2026-04-25 16:25 | 4.70813 | -74.14840 | 8373 ft | 17 kts | 307° |
| 2026-04-25 16:25 | 4.70905 | -74.14962 | 8373 ft | 16 kts | 307° |
| 2026-04-25 16:25 | 4.70971 | -74.15050 | 8373 ft | 15 kts | 307° |
| 2026-04-25 16:26 | 4.71034 | -74.15134 | 8371 ft | 15 kts | 307° |
| 2026-04-25 16:26 | 4.71076 | -74.15189 | 8375 ft | 7 kts | 307° |
| 2026-04-25 16:26 | 4.71087 | -74.15200 | 8375 ft | 0 kts | 320° |
| 2026-04-25 16:27 | 4.71103 | -74.15211 | 8375 ft | 4 kts | 332° |
| 2026-04-25 16:28 | 4.71135 | -74.15221 | 8373 ft | 6 kts | 349° |
| 2026-04-25 16:28 | 4.71174 | -74.15225 | 8373 ft | 6 kts | 354° |
| 2026-04-25 16:28 | 4.71210 | -74.15228 | 8373 ft | 4 kts | 354° |
| 2026-04-25 16:28 | 4.71243 | -74.15231 | 8373 ft | 6 kts | 355° |
| 2026-04-25 16:29 | 4.71281 | -74.15232 | 8373 ft | 3 kts | 12° |
| 2026-04-25 16:29 | 4.71296 | -74.15225 | 8373 ft | 2 kts | 35° |
| 2026-04-25 16:29 | 4.71313 | -74.15208 | 8372 ft | 2 kts | 60° |
| 2026-04-25 16:29 | 4.71315 | -74.15194 | 8371 ft | 1 kts | 92° |
| 2026-04-25 16:30 | 4.71309 | -74.15177 | 8371 ft | 5 kts | 111° |
| 2026-04-25 16:30 | 4.71260 | -74.15104 | 8371 ft | 28 kts | 126° |
| 2026-04-25 16:30 | 4.71032 | -74.14803 | 8374 ft | 81 kts | 127° |
| 2026-04-25 16:30 | 4.70587 | -74.14213 | 8372 ft | 129 kts | 127° |
| 2026-04-25 16:31 | 4.69956 | -74.13381 | 8371 ft | 169 kts | 127° |
| 2026-04-25 16:31 | 4.69174 | -74.12363 | 8523 ft | 191 kts | 131° |
| 2026-04-25 16:31 | 4.68352 | -74.11290 | 9039 ft | 196 kts | 126° |
| 2026-04-25 16:31 | 4.67549 | -74.10198 | 9612 ft | 195 kts | 127° |
| 2026-04-25 16:32 | 4.66421 | -74.09474 | 9905 ft | 197 kts | 172° |
| 2026-04-25 16:32 | 4.65067 | -74.09666 | 10205 ft | 210 kts | 209° |
| 2026-04-25 16:32 | 4.64023 | -74.10794 | 10219 ft | 238 kts | 246° |
| 2026-04-25 16:32 | 4.63576 | -74.12467 | 10375 ft | 261 kts | 259° |
| 2026-04-25 16:33 | 4.63273 | -74.14330 | 10850 ft | 271 kts | 261° |
| 2026-04-25 16:33 | 4.62922 | -74.16190 | 11592 ft | 274 kts | 257° |
| 2026-04-25 16:33 | 4.62467 | -74.18061 | 12284 ft | 277 kts | 256° |
| 2026-04-25 16:33 | 4.62092 | -74.19987 | 12684 ft | 292 kts | 271° |
| 2026-04-25 16:34 | 4.62695 | -74.21993 | 12858 ft | 317 kts | 304° |
| 2026-04-25 16:34 | 4.64308 | -74.23544 | 13038 ft | 340 kts | 330° |
| 2026-04-25 16:34 | 4.66608 | -74.24294 | 13301 ft | 359 kts | 356° |
| 2026-04-25 16:34 | 4.69086 | -74.24006 | 14091 ft | 361 kts | 19° |
| 2026-04-25 16:35 | 4.71287 | -74.22792 | 14740 ft | 366 kts | 41° |
| 2026-04-25 16:35 | 4.72903 | -74.20823 | 15358 ft | 370 kts | 61° |
| 2026-04-25 16:35 | 4.74007 | -74.18476 | 15965 ft | 375 kts | 67° |
| 2026-04-25 16:35 | 4.75023 | -74.16054 | 16565 ft | 380 kts | 66° |
| 2026-04-25 16:36 | 4.76173 | -74.13653 | 17224 ft | 383 kts | 61° |
| 2026-04-25 16:36 | 4.76616 | -74.12867 | 17425 ft | 384 kts | 58° |
| 2026-04-25 16:36 | 4.79343 | -74.09294 | 18391 ft | 392 kts | 48° |
| 2026-04-25 16:36 | 4.81163 | -74.07247 | 18953 ft | 396 kts | 48° |
| 2026-04-25 16:37 | 4.82921 | -74.05097 | 19208 ft | 399 kts | 52° |
| 2026-04-25 16:37 | 4.84587 | -74.02863 | 19756 ft | 402 kts | 52° |
| 2026-04-25 16:37 | 4.86296 | -74.00632 | 20303 ft | 405 kts | 51° |
| 2026-04-25 16:37 | 4.88063 | -73.98426 | 20907 ft | 406 kts | 51° |
| 2026-04-25 16:38 | 4.89832 | -73.96204 | 21416 ft | 409 kts | 51° |
| 2026-04-25 16:38 | 4.91591 | -73.93948 | 21951 ft | 412 kts | 51° |
| 2026-04-25 16:38 | 4.93361 | -73.91675 | 22478 ft | 415 kts | 51° |
| 2026-04-25 16:38 | 4.95156 | -73.89393 | 23010 ft | 418 kts | 51° |
| 2026-04-25 16:39 | 4.96961 | -73.87102 | 23515 ft | 421 kts | 51° |
| 2026-04-25 16:39 | 4.98777 | -73.84787 | 23967 ft | 423 kts | 52° |
| 2026-04-25 16:39 | 5.00599 | -73.82460 | 24374 ft | 426 kts | 52° |
| 2026-04-25 16:39 | 5.02436 | -73.80119 | 24805 ft | 427 kts | 52° |
| 2026-04-25 16:40 | 5.04280 | -73.77770 | 25184 ft | 431 kts | 52° |
| 2026-04-25 16:40 | 5.06123 | -73.75422 | 25590 ft | 433 kts | 52° |
| 2026-04-25 16:40 | 5.07990 | -73.73040 | 25977 ft | 436 kts | 52° |
| 2026-04-25 16:40 | 5.09874 | -73.70637 | 26376 ft | 438 kts | 52° |
| 2026-04-25 16:41 | 5.11765 | -73.68226 | 26767 ft | 441 kts | 52° |
| 2026-04-25 16:41 | 5.12380 | -73.67442 | 26880 ft | 442 kts | 52° |
| 2026-04-25 16:41 | 5.17507 | -73.60902 | 27885 ft | 448 kts | 53° |
| 2026-04-25 16:42 | 5.19441 | -73.58433 | 28251 ft | 451 kts | 53° |
| 2026-04-25 16:42 | 5.21388 | -73.55949 | 28631 ft | 453 kts | 53° |
| 2026-04-25 16:42 | 5.23317 | -73.53488 | 28977 ft | 456 kts | 53° |
| 2026-04-25 16:42 | 5.25283 | -73.50979 | 29340 ft | 458 kts | 53° |
| 2026-04-25 16:43 | 5.27261 | -73.48454 | 29687 ft | 461 kts | 53° |
| 2026-04-25 16:43 | 5.29248 | -73.45917 | 30053 ft | 463 kts | 53° |
| 2026-04-25 16:43 | 5.31246 | -73.43367 | 30375 ft | 466 kts | 53° |
| 2026-04-25 16:43 | 5.33254 | -73.40803 | 30676 ft | 468 kts | 53° |
| 2026-04-25 16:44 | 5.35260 | -73.38242 | 30991 ft | 470 kts | 53° |
| 2026-04-25 16:44 | 5.37298 | -73.35639 | 31275 ft | 472 kts | 53° |
| 2026-04-25 16:44 | 5.39301 | -73.33081 | 31553 ft | 474 kts | 53° |
| 2026-04-25 16:44 | 5.41346 | -73.30468 | 31840 ft | 476 kts | 53° |
| 2026-04-25 16:45 | 5.43397 | -73.27847 | 32071 ft | 480 kts | 54° |
| 2026-04-25 16:45 | 5.45463 | -73.25206 | 32354 ft | 482 kts | 54° |
| 2026-04-25 16:45 | 5.47539 | -73.22554 | 32637 ft | 484 kts | 54° |
| 2026-04-25 16:45 | 5.49619 | -73.19897 | 32930 ft | 485 kts | 54° |
| 2026-04-25 16:46 | 5.51709 | -73.17225 | 33197 ft | 487 kts | 54° |
| 2026-04-25 16:46 | 5.53806 | -73.14543 | 33472 ft | 489 kts | 54° |
| 2026-04-25 16:46 | 5.55913 | -73.11850 | 33746 ft | 491 kts | 54° |
| 2026-04-25 16:46 | 5.56626 | -73.10938 | 33826 ft | 492 kts | 54° |
| 2026-04-25 16:47 | 5.60148 | -73.06434 | 34262 ft | 495 kts | 54° |
| 2026-04-25 16:47 | 5.61558 | -73.04631 | 34431 ft | 496 kts | 54° |
| 2026-04-25 16:47 | 5.63692 | -73.01901 | 34688 ft | 498 kts | 54° |
| 2026-04-25 16:47 | 5.66548 | -72.98247 | 35175 ft | 496 kts | 54° |
| 2026-04-25 16:48 | 5.67919 | -72.96416 | 35388 ft | 493 kts | 60° |
| 2026-04-25 16:48 | 5.69742 | -72.93500 | 35663 ft | 493 kts | 60° |
| 2026-04-25 16:48 | 5.71565 | -72.90586 | 36002 ft | 492 kts | 60° |
| 2026-04-25 16:48 | 5.73388 | -72.87683 | 36321 ft | 491 kts | 60° |
| 2026-04-25 16:49 | 5.75206 | -72.84777 | 36663 ft | 490 kts | 60° |
| 2026-04-25 16:49 | 5.77017 | -72.81876 | 36983 ft | 489 kts | 60° |
| 2026-04-25 16:49 | 5.78803 | -72.79017 | 37306 ft | 488 kts | 60° |
| 2026-04-25 16:49 | 5.80611 | -72.76128 | 37619 ft | 487 kts | 60° |
| 2026-04-25 16:50 | 5.82412 | -72.73248 | 37951 ft | 487 kts | 60° |
| 2026-04-25 16:50 | 5.84211 | -72.70370 | 38329 ft | 485 kts | 60° |
| 2026-04-25 16:50 | 5.86000 | -72.67504 | 38672 ft | 484 kts | 60° |
| 2026-04-25 16:50 | 5.87787 | -72.64646 | 38946 ft | 483 kts | 60° |
| 2026-04-25 16:51 | 5.89576 | -72.61783 | 39188 ft | 483 kts | 60° |
| 2026-04-25 16:51 | 5.91360 | -72.58924 | 39402 ft | 483 kts | 60° |
| 2026-04-25 16:51 | 5.93143 | -72.56069 | 39683 ft | 481 kts | 60° |
| 2026-04-25 16:51 | 5.94318 | -72.54188 | 39840 ft | 481 kts | 59° |
| 2026-04-25 16:52 | 5.96706 | -72.50363 | 40053 ft | 482 kts | 59° |
| 2026-04-25 16:52 | 5.98482 | -72.47519 | 40380 ft | 480 kts | 59° |
| 2026-04-25 16:52 | 6.00236 | -72.44708 | 40573 ft | 481 kts | 59° |
| 2026-04-25 16:52 | 6.02012 | -72.41863 | 40792 ft | 481 kts | 59° |
| 2026-04-25 16:53 | 6.05567 | -72.36165 | 41086 ft | 483 kts | 59° |
| 2026-04-25 16:53 | 6.07357 | -72.33294 | 41072 ft | 485 kts | 59° |
| 2026-04-25 16:54 | 6.10926 | -72.27573 | 41107 ft | 481 kts | 59° |
| 2026-04-25 16:54 | 6.14473 | -72.21883 | 41065 ft | 479 kts | 59° |
| 2026-04-25 16:55 | 6.18015 | -72.16201 | 41073 ft | 478 kts | 60° |
| 2026-04-25 16:55 | 6.21540 | -72.10543 | 41031 ft | 478 kts | 60° |
| 2026-04-25 16:56 | 6.25051 | -72.04906 | 41056 ft | 477 kts | 60° |
| 2026-04-25 16:56 | 6.28581 | -71.99238 | 41059 ft | 478 kts | 60° |
| 2026-04-25 16:57 | 6.32112 | -71.93565 | 41015 ft | 478 kts | 60° |
| 2026-04-25 16:57 | 6.35640 | -71.87895 | 41003 ft | 479 kts | 59° |
| 2026-04-25 16:58 | 6.39158 | -71.82241 | 41000 ft | 481 kts | 59° |
| 2026-04-25 16:58 | 6.42709 | -71.76531 | 41002 ft | 481 kts | 59° |
| 2026-04-25 16:59 | 6.46260 | -71.70819 | 41001 ft | 480 kts | 59° |
| 2026-04-25 16:59 | 6.49793 | -71.65134 | 40999 ft | 479 kts | 59° |
| 2026-04-25 17:00 | 6.53359 | -71.59396 | 40995 ft | 488 kts | 59° |
| 2026-04-25 17:00 | 6.56993 | -71.53544 | 40984 ft | 498 kts | 59° |
| 2026-04-25 17:01 | 6.60701 | -71.47572 | 40982 ft | 507 kts | 59° |
| 2026-04-25 17:01 | 6.64443 | -71.41544 | 40971 ft | 513 kts | 59° |
| 2026-04-25 17:02 | 6.68222 | -71.35454 | 40976 ft | 511 kts | 59° |
| 2026-04-25 17:02 | 6.71985 | -71.29387 | 40974 ft | 510 kts | 59° |
| 2026-04-25 17:03 | 6.75743 | -71.23326 | 40973 ft | 510 kts | 59° |
| 2026-04-25 17:03 | 6.79472 | -71.17309 | 40973 ft | 510 kts | 59° |
| 2026-04-25 17:04 | 6.83228 | -71.11248 | 40972 ft | 511 kts | 59° |
| 2026-04-25 17:04 | 6.86990 | -71.05174 | 40971 ft | 512 kts | 59° |
| 2026-04-25 17:05 | 6.90764 | -70.99079 | 40971 ft | 512 kts | 59° |
| 2026-04-25 17:05 | 6.96401 | -70.89971 | 40969 ft | 512 kts | 59° |
| 2026-04-25 17:06 | 7.00171 | -70.83876 | 40969 ft | 514 kts | 59° |
| 2026-04-25 17:06 | 7.03958 | -70.77753 | 40946 ft | 515 kts | 59° |
| 2026-04-25 17:07 | 7.07179 | -70.71370 | 40963 ft | 511 kts | 76° |
| 2026-04-25 17:07 | 7.08950 | -70.64443 | 40947 ft | 511 kts | 77° |
| 2026-04-25 17:08 | 7.10686 | -70.57507 | 40953 ft | 511 kts | 77° |
| 2026-04-25 17:08 | 7.12426 | -70.50605 | 40960 ft | 513 kts | 77° |
| 2026-04-25 17:09 | 7.14175 | -70.43622 | 40964 ft | 514 kts | 77° |
| 2026-04-25 17:09 | 7.15929 | -70.36641 | 40962 ft | 514 kts | 77° |
| 2026-04-25 17:10 | 7.17682 | -70.29641 | 40964 ft | 516 kts | 77° |
| 2026-04-25 17:10 | 7.19430 | -70.22670 | 40968 ft | 517 kts | 77° |
| 2026-04-25 17:11 | 7.21186 | -70.15656 | 40962 ft | 515 kts | 77° |
| 2026-04-25 17:11 | 7.22935 | -70.08667 | 40958 ft | 514 kts | 77° |
| 2026-04-25 17:12 | 7.24678 | -70.01695 | 40953 ft | 513 kts | 77° |
| 2026-04-25 17:12 | 7.26420 | -69.94725 | 40951 ft | 513 kts | 77° |
| 2026-04-25 17:13 | 7.27584 | -69.90061 | 40953 ft | 513 kts | 77° |
| 2026-04-25 17:13 | 7.29901 | -69.80777 | 40963 ft | 515 kts | 77° |
| 2026-04-25 17:14 | 7.31651 | -69.73762 | 40962 ft | 516 kts | 77° |
| 2026-04-25 17:14 | 7.33388 | -69.66789 | 40965 ft | 516 kts | 77° |
| 2026-04-25 17:15 | 7.35138 | -69.59762 | 40965 ft | 516 kts | 77° |
| 2026-04-25 17:15 | 7.36888 | -69.52728 | 40968 ft | 517 kts | 77° |
| 2026-04-25 17:16 | 7.38622 | -69.45756 | 40957 ft | 515 kts | 77° |
| 2026-04-25 17:16 | 7.40359 | -69.38764 | 40951 ft | 513 kts | 77° |
| 2026-04-25 17:17 | 7.42091 | -69.31791 | 40952 ft | 514 kts | 77° |
| 2026-04-25 17:17 | 7.43827 | -69.24794 | 40953 ft | 515 kts | 77° |
| 2026-04-25 17:18 | 7.45568 | -69.17774 | 40961 ft | 517 kts | 77° |
| 2026-04-25 17:18 | 7.47310 | -69.10743 | 40949 ft | 515 kts | 77° |
| 2026-04-25 17:19 | 7.49043 | -69.03744 | 40943 ft | 514 kts | 77° |
| 2026-04-25 17:19 | 7.50762 | -68.96796 | 40941 ft | 514 kts | 77° |
| 2026-04-25 17:20 | 7.52492 | -68.89799 | 40942 ft | 515 kts | 77° |
| 2026-04-25 17:20 | 7.54222 | -68.82795 | 40943 ft | 515 kts | 77° |
| 2026-04-25 17:21 | 7.55955 | -68.75775 | 40950 ft | 516 kts | 77° |
| 2026-04-25 17:21 | 7.57692 | -68.68734 | 40950 ft | 517 kts | 77° |
| 2026-04-25 17:22 | 7.58839 | -68.64083 | 40946 ft | 517 kts | 77° |
| 2026-04-25 17:22 | 7.61150 | -68.54705 | 40949 ft | 518 kts | 77° |
| 2026-04-25 17:23 | 7.62883 | -68.47664 | 40942 ft | 515 kts | 77° |
| 2026-04-25 17:23 | 7.64605 | -68.40661 | 40935 ft | 514 kts | 77° |
| 2026-04-25 17:24 | 7.66327 | -68.33656 | 40932 ft | 514 kts | 77° |
| 2026-04-25 17:24 | 7.68035 | -68.26702 | 40931 ft | 514 kts | 77° |
| 2026-04-25 17:25 | 7.69751 | -68.19712 | 40932 ft | 513 kts | 77° |
| 2026-04-25 17:25 | 7.71462 | -68.12736 | 40928 ft | 512 kts | 77° |
| 2026-04-25 17:26 | 7.73170 | -68.05766 | 40930 ft | 513 kts | 77° |
| 2026-04-25 17:26 | 7.74884 | -67.98769 | 40934 ft | 514 kts | 77° |
| 2026-04-25 17:27 | 7.76599 | -67.91760 | 40934 ft | 515 kts | 77° |
| 2026-04-25 17:27 | 7.77734 | -67.87114 | 40937 ft | 516 kts | 77° |
| 2026-04-25 17:28 | 7.80017 | -67.77774 | 40937 ft | 514 kts | 77° |
| 2026-04-25 17:28 | 7.81725 | -67.70782 | 40931 ft | 512 kts | 77° |
| 2026-04-25 17:29 | 7.83424 | -67.63814 | 40925 ft | 511 kts | 77° |
| 2026-04-25 17:29 | 7.85125 | -67.56837 | 40928 ft | 513 kts | 77° |
| 2026-04-25 17:30 | 7.86829 | -67.49842 | 40926 ft | 511 kts | 77° |
| 2026-04-25 17:30 | 7.88686 | -67.42983 | 40950 ft | 510 kts | 67° |
| 2026-04-25 17:31 | 7.91580 | -67.36414 | 40931 ft | 513 kts | 66° |
| 2026-04-25 17:31 | 7.94491 | -67.29830 | 40932 ft | 513 kts | 67° |
| 2026-04-25 17:32 | 7.97392 | -67.23245 | 40929 ft | 513 kts | 66° |
| 2026-04-25 17:32 | 8.00277 | -67.16711 | 40928 ft | 510 kts | 67° |
| 2026-04-25 17:33 | 8.03158 | -67.10167 | 40924 ft | 509 kts | 67° |
| 2026-04-25 17:33 | 8.06040 | -67.03629 | 40925 ft | 511 kts | 67° |
| 2026-04-25 17:34 | 8.08916 | -66.97094 | 40930 ft | 513 kts | 67° |
| 2026-04-25 17:34 | 8.11809 | -66.90522 | 40929 ft | 512 kts | 67° |
| 2026-04-25 17:35 | 8.14228 | -66.85021 | 40922 ft | 510 kts | 67° |
| 2026-04-25 17:35 | 8.17085 | -66.78523 | 40916 ft | 509 kts | 67° |
| 2026-04-25 17:36 | 8.19964 | -66.71971 | 40919 ft | 510 kts | 67° |
| 2026-04-25 17:36 | 8.22847 | -66.65408 | 40927 ft | 512 kts | 67° |
| 2026-04-25 17:37 | 8.25741 | -66.58815 | 40929 ft | 513 kts | 67° |
| 2026-04-25 17:37 | 8.28605 | -66.52289 | 40927 ft | 511 kts | 67° |
| 2026-04-25 17:38 | 8.31019 | -66.46785 | 40925 ft | 511 kts | 67° |
| 2026-04-25 17:38 | 8.34365 | -66.39150 | 40928 ft | 511 kts | 67° |
| 2026-04-25 17:39 | 8.37234 | -66.32602 | 40923 ft | 509 kts | 67° |
| 2026-04-25 17:39 | 8.40096 | -66.26064 | 40923 ft | 509 kts | 67° |
| 2026-04-25 17:40 | 8.42972 | -66.19491 | 40925 ft | 513 kts | 67° |
| 2026-04-25 17:40 | 8.45844 | -66.12927 | 40928 ft | 513 kts | 67° |
| 2026-04-25 17:41 | 8.48725 | -66.06336 | 40929 ft | 513 kts | 67° |
| 2026-04-25 17:41 | 8.51611 | -65.99731 | 40930 ft | 513 kts | 67° |
| 2026-04-25 17:42 | 8.54490 | -65.93138 | 40927 ft | 512 kts | 67° |
| 2026-04-25 17:42 | 8.57361 | -65.86559 | 40927 ft | 518 kts | 67° |
| 2026-04-25 17:43 | 8.60262 | -65.79910 | 40929 ft | 516 kts | 67° |
| 2026-04-25 17:43 | 8.63158 | -65.73268 | 40925 ft | 515 kts | 67° |
| 2026-04-25 17:44 | 8.66047 | -65.66636 | 40922 ft | 517 kts | 67° |
| 2026-04-25 17:44 | 8.68953 | -65.59964 | 40927 ft | 517 kts | 67° |
| 2026-04-25 17:45 | 8.71352 | -65.54453 | 40924 ft | 514 kts | 67° |
| 2026-04-25 17:45 | 8.74704 | -65.46747 | 40922 ft | 514 kts | 67° |
| 2026-04-25 17:46 | 8.77581 | -65.40130 | 40922 ft | 514 kts | 67° |
| 2026-04-25 17:46 | 8.80456 | -65.33514 | 40921 ft | 514 kts | 67° |
| 2026-04-25 17:47 | 8.83313 | -65.26935 | 40923 ft | 514 kts | 67° |
| 2026-04-25 17:47 | 8.86189 | -65.20310 | 40923 ft | 512 kts | 68° |
| 2026-04-25 17:48 | 8.90466 | -65.10448 | 40919 ft | 513 kts | 68° |
| 2026-04-25 17:49 | 8.93339 | -65.03821 | 40927 ft | 515 kts | 67° |
| 2026-04-25 17:49 | 8.96220 | -64.97169 | 40931 ft | 517 kts | 67° |
| 2026-04-25 17:50 | 8.99088 | -64.90546 | 40915 ft | 512 kts | 67° |
| 2026-04-25 17:50 | 9.01948 | -64.83935 | 40915 ft | 513 kts | 67° |
| 2026-04-25 17:51 | 9.04810 | -64.77320 | 40917 ft | 513 kts | 67° |
| 2026-04-25 17:51 | 9.07655 | -64.70737 | 40918 ft | 514 kts | 67° |
| 2026-04-25 17:52 | 9.10519 | -64.64106 | 40917 ft | 514 kts | 67° |
| 2026-04-25 17:52 | 9.13378 | -64.57484 | 40917 ft | 513 kts | 67° |
| 2026-04-25 17:53 | 9.16236 | -64.50860 | 40914 ft | 513 kts | 67° |
| 2026-04-25 17:53 | 9.19090 | -64.44240 | 40919 ft | 513 kts | 67° |
| 2026-04-25 17:54 | 9.21933 | -64.37643 | 40916 ft | 513 kts | 67° |
| 2026-04-25 17:54 | 9.24784 | -64.31025 | 40919 ft | 512 kts | 68° |
| 2026-04-25 17:55 | 9.27633 | -64.24406 | 40912 ft | 512 kts | 68° |
| 2026-04-25 17:55 | 9.30483 | -64.17781 | 40915 ft | 512 kts | 68° |
| 2026-04-25 17:56 | 9.33329 | -64.11162 | 40915 ft | 512 kts | 68° |
| 2026-04-25 17:56 | 9.36175 | -64.04538 | 40922 ft | 513 kts | 68° |
| 2026-04-25 17:57 | 9.39013 | -63.97930 | 40916 ft | 511 kts | 68° |
| 2026-04-25 17:57 | 9.41825 | -63.91377 | 40915 ft | 510 kts | 68° |
| 2026-04-25 17:58 | 9.44655 | -63.84780 | 40909 ft | 510 kts | 68° |
| 2026-04-25 17:58 | 9.47480 | -63.78188 | 40910 ft | 511 kts | 68° |
| 2026-04-25 17:59 | 9.50314 | -63.71574 | 40905 ft | 512 kts | 68° |
| 2026-04-25 17:59 | 9.53156 | -63.64937 | 40908 ft | 513 kts | 68° |
| 2026-04-25 18:00 | 9.55979 | -63.58338 | 40905 ft | 513 kts | 68° |
| 2026-04-25 18:00 | 9.58820 | -63.51697 | 40903 ft | 512 kts | 68° |
| 2026-04-25 18:01 | 9.61649 | -63.45075 | 40900 ft | 511 kts | 68° |
| 2026-04-25 18:01 | 9.64467 | -63.38478 | 40897 ft | 508 kts | 68° |
| 2026-04-25 18:02 | 9.67281 | -63.31884 | 40891 ft | 510 kts | 68° |
| 2026-04-25 18:02 | 9.70082 | -63.25320 | 40895 ft | 511 kts | 68° |
| 2026-04-25 18:03 | 9.72906 | -63.18696 | 40908 ft | 512 kts | 68° |
| 2026-04-25 18:03 | 9.75710 | -63.12075 | 40899 ft | 510 kts | 68° |
| 2026-04-25 18:04 | 9.78420 | -63.05442 | 40894 ft | 509 kts | 68° |
| 2026-04-25 18:04 | 9.81182 | -62.98812 | 40892 ft | 509 kts | 68° |
| 2026-04-25 18:05 | 9.83894 | -62.92225 | 40896 ft | 509 kts | 68° |
| 2026-04-25 18:05 | 9.86635 | -62.85602 | 40896 ft | 509 kts | 68° |
| 2026-04-25 18:06 | 9.89368 | -62.78974 | 40902 ft | 510 kts | 68° |
| 2026-04-25 18:06 | 9.92113 | -62.72324 | 40906 ft | 510 kts | 68° |
| 2026-04-25 18:07 | 9.94850 | -62.65684 | 40903 ft | 510 kts | 68° |
| 2026-04-25 18:07 | 9.97569 | -62.59086 | 40904 ft | 510 kts | 68° |
| 2026-04-25 18:08 | 10.00304 | -62.52443 | 40909 ft | 510 kts | 68° |
| 2026-04-25 18:08 | 10.03038 | -62.45800 | 40909 ft | 509 kts | 68° |
| 2026-04-25 18:09 | 10.05767 | -62.39163 | 40913 ft | 510 kts | 68° |
| 2026-04-25 18:09 | 10.08499 | -62.32514 | 40911 ft | 510 kts | 68° |
| 2026-04-25 18:10 | 10.11215 | -62.25901 | 40911 ft | 510 kts | 68° |
| 2026-04-25 18:10 | 10.13943 | -62.19254 | 40914 ft | 509 kts | 68° |
| 2026-04-25 18:11 | 10.16661 | -62.12626 | 40918 ft | 508 kts | 68° |
| 2026-04-25 18:11 | 10.19375 | -62.06004 | 40919 ft | 508 kts | 68° |
| 2026-04-25 18:12 | 10.22093 | -61.99369 | 40920 ft | 508 kts | 68° |
| 2026-04-25 18:12 | 10.24795 | -61.92768 | 40921 ft | 508 kts | 68° |
| 2026-04-25 18:13 | 10.27513 | -61.86122 | 40927 ft | 508 kts | 68° |
| 2026-04-25 18:13 | 10.30206 | -61.79533 | 40928 ft | 508 kts | 68° |
| 2026-04-25 18:14 | 10.34278 | -61.69566 | 40929 ft | 510 kts | 68° |
| 2026-04-25 18:14 | 10.36996 | -61.62904 | 40929 ft | 510 kts | 68° |
| 2026-04-25 18:15 | 10.39709 | -61.56253 | 40931 ft | 510 kts | 68° |
| 2026-04-25 18:15 | 10.42424 | -61.49591 | 40931 ft | 510 kts | 68° |
| 2026-04-25 18:16 | 10.45133 | -61.42938 | 40936 ft | 510 kts | 68° |
| 2026-04-25 18:16 | 10.47184 | -61.36133 | 40955 ft | 507 kts | 81° |
| 2026-04-25 18:17 | 10.47801 | -61.32556 | 40937 ft | 508 kts | 82° |
| 2026-04-25 18:17 | 10.48996 | -61.25544 | 40939 ft | 507 kts | 81° |
| 2026-04-25 18:18 | 10.50219 | -61.18486 | 40942 ft | 507 kts | 81° |
| 2026-04-25 18:18 | 10.51435 | -61.11385 | 40945 ft | 507 kts | 81° |
| 2026-04-25 18:19 | 10.52643 | -61.04366 | 40943 ft | 506 kts | 82° |
| 2026-04-25 18:19 | 10.53851 | -60.97308 | 40942 ft | 507 kts | 81° |
| 2026-04-25 18:20 | 10.55061 | -60.90248 | 40939 ft | 506 kts | 81° |
| 2026-04-25 18:20 | 10.56267 | -60.83189 | 40937 ft | 508 kts | 81° |
| 2026-04-25 18:21 | 10.57475 | -60.76114 | 40935 ft | 510 kts | 81° |
| 2026-04-25 18:21 | 10.58684 | -60.69022 | 40933 ft | 508 kts | 81° |
| 2026-04-25 18:22 | 10.59887 | -60.61958 | 40925 ft | 506 kts | 81° |
| 2026-04-25 18:22 | 10.61080 | -60.54942 | 40926 ft | 507 kts | 81° |
| 2026-04-25 18:23 | 10.62281 | -60.47865 | 40933 ft | 509 kts | 81° |
| 2026-04-25 18:23 | 10.63484 | -60.40770 | 40936 ft | 508 kts | 81° |
| 2026-04-25 18:24 | 10.64681 | -60.33699 | 40927 ft | 506 kts | 81° |
| 2026-04-25 18:24 | 10.65671 | -60.27844 | 40927 ft | 506 kts | 81° |
| 2026-04-25 18:25 | 10.66865 | -60.20777 | 40924 ft | 507 kts | 81° |
| 2026-04-25 18:25 | 10.68058 | -60.13703 | 40931 ft | 509 kts | 81° |
| 2026-04-25 18:26 | 10.69252 | -60.06609 | 40932 ft | 509 kts | 81° |
| 2026-04-25 18:26 | 10.70444 | -59.99521 | 40934 ft | 509 kts | 81° |
| 2026-04-25 18:27 | 10.71637 | -59.92420 | 40933 ft | 509 kts | 81° |
| 2026-04-25 18:27 | 10.72822 | -59.85348 | 40935 ft | 511 kts | 81° |
| 2026-04-25 18:28 | 10.74018 | -59.78211 | 40940 ft | 511 kts | 81° |
| 2026-04-25 18:28 | 10.75209 | -59.71084 | 40939 ft | 511 kts | 81° |
| 2026-04-25 18:29 | 10.76990 | -59.60413 | 40941 ft | 513 kts | 81° |
| 2026-04-25 18:30 | 10.79381 | -59.46053 | 40939 ft | 514 kts | 81° |
| 2026-04-25 18:30 | 10.80572 | -59.38879 | 40938 ft | 514 kts | 81° |
| 2026-04-25 18:31 | 10.81761 | -59.31711 | 40935 ft | 514 kts | 81° |
| 2026-04-25 18:31 | 10.82944 | -59.24566 | 40932 ft | 516 kts | 81° |
| 2026-04-25 18:32 | 10.84135 | -59.17366 | 40932 ft | 515 kts | 81° |
| 2026-04-25 18:32 | 10.85325 | -59.10162 | 40931 ft | 515 kts | 81° |
| 2026-04-25 18:33 | 10.86504 | -59.03014 | 40937 ft | 515 kts | 81° |
| 2026-04-25 18:33 | 10.87691 | -58.95798 | 40934 ft | 516 kts | 81° |
| 2026-04-25 18:34 | 10.88876 | -58.88594 | 40929 ft | 515 kts | 81° |
| 2026-04-25 18:34 | 10.90050 | -58.81441 | 40931 ft | 515 kts | 81° |
| 2026-04-25 18:35 | 10.91229 | -58.74246 | 40934 ft | 516 kts | 81° |
| 2026-04-25 18:35 | 10.92409 | -58.67037 | 40934 ft | 515 kts | 81° |
| 2026-04-25 18:36 | 10.93586 | -58.59834 | 40931 ft | 515 kts | 81° |
| 2026-04-25 18:36 | 10.94755 | -58.52671 | 40936 ft | 516 kts | 81° |
| 2026-04-25 18:37 | 10.95932 | -58.45443 | 40937 ft | 516 kts | 81° |
| 2026-04-25 18:37 | 10.97106 | -58.38228 | 40935 ft | 516 kts | 81° |
| 2026-04-25 18:38 | 10.98277 | -58.31017 | 40931 ft | 517 kts | 81° |
| 2026-04-25 18:38 | 10.99441 | -58.23842 | 40938 ft | 516 kts | 81° |
| 2026-04-25 18:39 | 11.00608 | -58.16632 | 40937 ft | 517 kts | 81° |
| 2026-04-25 18:39 | 11.01775 | -58.09416 | 40932 ft | 517 kts | 81° |
| 2026-04-25 18:40 | 11.02940 | -58.02198 | 40939 ft | 516 kts | 81° |
| 2026-04-25 18:40 | 11.04102 | -57.94990 | 40939 ft | 517 kts | 81° |
| 2026-04-25 18:41 | 11.05264 | -57.87766 | 40938 ft | 518 kts | 81° |
| 2026-04-25 18:41 | 11.06427 | -57.80533 | 40936 ft | 517 kts | 81° |
| 2026-04-25 18:42 | 11.07390 | -57.74532 | 40936 ft | 517 kts | 81° |
| 2026-04-25 18:42 | 11.08735 | -57.66134 | 40942 ft | 518 kts | 81° |
| 2026-04-25 18:43 | 11.09890 | -57.58913 | 40941 ft | 518 kts | 81° |
| 2026-04-25 18:43 | 11.11045 | -57.51677 | 40943 ft | 519 kts | 81° |
| 2026-04-25 18:44 | 11.12201 | -57.44431 | 40944 ft | 519 kts | 81° |
| 2026-04-25 18:44 | 11.13353 | -57.37189 | 40945 ft | 518 kts | 81° |
| 2026-04-25 18:45 | 11.14506 | -57.29939 | 40944 ft | 519 kts | 81° |
| 2026-04-25 18:45 | 11.15651 | -57.22719 | 40941 ft | 520 kts | 81° |
| 2026-04-25 18:46 | 11.16802 | -57.15453 | 40943 ft | 519 kts | 81° |
| 2026-04-25 18:46 | 11.17950 | -57.08197 | 40942 ft | 519 kts | 81° |
| 2026-04-25 18:47 | 11.19087 | -57.00988 | 40947 ft | 518 kts | 81° |
| 2026-04-25 18:47 | 11.20232 | -56.93736 | 40949 ft | 518 kts | 81° |
| 2026-04-25 18:48 | 11.21371 | -56.86496 | 40947 ft | 518 kts | 81° |
| 2026-04-25 18:48 | 11.22510 | -56.79248 | 40944 ft | 516 kts | 81° |
| 2026-04-25 18:49 | 11.23643 | -56.72030 | 40945 ft | 515 kts | 81° |
| 2026-04-25 18:49 | 11.24521 | -56.68499 | 40976 ft | 515 kts | 70° |
| 2026-04-25 18:49 | 11.25709 | -56.65051 | 40949 ft | 516 kts | 71° |
| 2026-04-25 18:50 | 11.28097 | -56.58190 | 40947 ft | 516 kts | 71° |
| 2026-04-25 18:50 | 11.30466 | -56.51282 | 40942 ft | 514 kts | 71° |
| 2026-04-25 18:51 | 11.32440 | -56.45568 | 40944 ft | 515 kts | 71° |
| 2026-04-25 18:51 | 11.35214 | -56.37498 | 40949 ft | 517 kts | 71° |
| 2026-04-25 18:52 | 11.37595 | -56.30580 | 40949 ft | 517 kts | 71° |
| 2026-04-25 18:52 | 11.39966 | -56.23674 | 40946 ft | 516 kts | 71° |
| 2026-04-25 18:53 | 11.42325 | -56.16802 | 40949 ft | 515 kts | 71° |
| 2026-04-25 18:53 | 11.44693 | -56.09898 | 40949 ft | 515 kts | 71° |
| 2026-04-25 18:54 | 11.48245 | -55.99529 | 40950 ft | 516 kts | 71° |
| 2026-04-25 18:55 | 11.50607 | -55.92625 | 40946 ft | 515 kts | 71° |
| 2026-04-25 18:55 | 11.52969 | -55.85718 | 40947 ft | 515 kts | 71° |
| 2026-04-25 18:56 | 11.55330 | -55.78807 | 40949 ft | 516 kts | 71° |
| 2026-04-25 18:56 | 11.57692 | -55.71891 | 40942 ft | 516 kts | 71° |
| 2026-04-25 18:57 | 11.60038 | -55.65010 | 40952 ft | 517 kts | 71° |
| 2026-04-25 18:57 | 11.62398 | -55.58085 | 40952 ft | 517 kts | 71° |
| 2026-04-25 18:58 | 11.64754 | -55.51165 | 40953 ft | 516 kts | 71° |
| 2026-04-25 18:58 | 11.68267 | -55.40832 | 40952 ft | 515 kts | 71° |
| 2026-04-25 18:59 | 11.72955 | -55.27028 | 40956 ft | 515 kts | 71° |
| 2026-04-25 19:00 | 11.76465 | -55.16673 | 40957 ft | 515 kts | 72° |
| 2026-04-25 19:01 | 11.79965 | -55.06341 | 40953 ft | 515 kts | 72° |
| 2026-04-25 19:01 | 11.82303 | -54.99428 | 40954 ft | 515 kts | 72° |
| 2026-04-25 19:02 | 11.85805 | -54.89061 | 40958 ft | 515 kts | 72° |
| 2026-04-25 19:03 | 11.88518 | -54.81019 | 40956 ft | 514 kts | 72° |
| 2026-04-25 19:03 | 11.91617 | -54.71829 | 40957 ft | 514 kts | 72° |
| 2026-04-25 19:04 | 11.95101 | -54.61479 | 40958 ft | 514 kts | 72° |
| 2026-04-25 19:05 | 11.99745 | -54.47661 | 40962 ft | 513 kts | 72° |
| 2026-04-25 19:06 | 12.02056 | -54.40777 | 40959 ft | 511 kts | 72° |
| 2026-04-25 19:06 | 12.05508 | -54.30483 | 40962 ft | 513 kts | 72° |
| 2026-04-25 19:07 | 12.08968 | -54.20148 | 40956 ft | 510 kts | 72° |
| 2026-04-25 19:08 | 12.12410 | -54.09853 | 40958 ft | 510 kts | 72° |
| 2026-04-25 19:09 | 12.16218 | -53.98449 | 40965 ft | 510 kts | 72° |
| 2026-04-25 19:10 | 12.20419 | -53.85848 | 40956 ft | 512 kts | 72° |
| 2026-04-25 19:10 | 12.22713 | -53.78956 | 40960 ft | 512 kts | 72° |
| 2026-04-25 19:11 | 12.25009 | -53.72057 | 40963 ft | 511 kts | 72° |
| 2026-04-25 19:11 | 12.27287 | -53.65202 | 40959 ft | 508 kts | 73° |
| 2026-04-25 19:12 | 12.29562 | -53.58350 | 40959 ft | 508 kts | 72° |
| 2026-04-25 19:12 | 12.31833 | -53.51503 | 40958 ft | 508 kts | 72° |
| 2026-04-25 19:13 | 12.33721 | -53.45806 | 40958 ft | 508 kts | 73° |
| 2026-04-25 19:13 | 12.35990 | -53.38956 | 40959 ft | 509 kts | 72° |
| 2026-04-25 19:14 | 12.38629 | -53.30975 | 40967 ft | 513 kts | 72° |
| 2026-04-25 19:14 | 12.40547 | -53.25176 | 40963 ft | 514 kts | 72° |
| 2026-04-25 19:15 | 12.42812 | -53.18314 | 40961 ft | 510 kts | 73° |
| 2026-04-25 19:15 | 12.45080 | -53.11440 | 40957 ft | 509 kts | 73° |
| 2026-04-25 19:16 | 12.47346 | -53.04565 | 40960 ft | 509 kts | 73° |
| 2026-04-25 19:16 | 12.49608 | -52.97697 | 40960 ft | 509 kts | 73° |
| 2026-04-25 19:17 | 12.51868 | -52.90828 | 40957 ft | 508 kts | 73° |
| 2026-04-25 19:17 | 12.54123 | -52.83964 | 40958 ft | 509 kts | 73° |
| 2026-04-25 19:18 | 12.56365 | -52.77137 | 40959 ft | 509 kts | 73° |
| 2026-04-25 19:18 | 12.58624 | -52.70250 | 40964 ft | 511 kts | 73° |
| 2026-04-25 19:19 | 12.60889 | -52.63341 | 40966 ft | 512 kts | 73° |
| 2026-04-25 19:19 | 12.63150 | -52.56435 | 40966 ft | 512 kts | 73° |
| 2026-04-25 19:20 | 12.65410 | -52.49528 | 40968 ft | 511 kts | 73° |
| 2026-04-25 19:20 | 12.67662 | -52.42634 | 40968 ft | 510 kts | 73° |
| 2026-04-25 19:21 | 12.69912 | -52.35742 | 40970 ft | 510 kts | 73° |
| 2026-04-25 19:21 | 12.73271 | -52.25441 | 40971 ft | 510 kts | 73° |
| 2026-04-25 19:22 | 12.75516 | -52.18548 | 40969 ft | 510 kts | 73° |
| 2026-04-25 19:23 | 12.78896 | -52.08159 | 40974 ft | 513 kts | 73° |
| 2026-04-25 19:23 | 12.82250 | -51.97831 | 40970 ft | 510 kts | 73° |
| 2026-04-25 19:24 | 12.84491 | -51.90925 | 40968 ft | 510 kts | 73° |
| 2026-04-25 19:25 | 12.88958 | -51.77136 | 40961 ft | 509 kts | 73° |
| 2026-04-25 19:25 | 12.91185 | -51.70250 | 40962 ft | 508 kts | 73° |
| 2026-04-25 19:26 | 12.93408 | -51.63371 | 40960 ft | 509 kts | 73° |
| 2026-04-25 19:26 | 12.95627 | -51.56496 | 40972 ft | 513 kts | 73° |
| 2026-04-25 19:27 | 12.97504 | -51.50675 | 40973 ft | 511 kts | 73° |
| 2026-04-25 19:27 | 13.00090 | -51.42651 | 40965 ft | 509 kts | 73° |
| 2026-04-25 19:28 | 13.02314 | -51.35740 | 40969 ft | 511 kts | 73° |
| 2026-04-25 19:28 | 13.04544 | -51.28805 | 40974 ft | 513 kts | 73° |
| 2026-04-25 19:29 | 13.06780 | -51.21843 | 40979 ft | 514 kts | 73° |
| 2026-04-25 19:29 | 13.08994 | -51.14946 | 40976 ft | 511 kts | 73° |
| 2026-04-25 19:30 | 13.11212 | -51.08025 | 40971 ft | 510 kts | 73° |
| 2026-04-25 19:30 | 13.13429 | -51.01101 | 40973 ft | 511 kts | 73° |
| 2026-04-25 19:31 | 13.15657 | -50.94138 | 40979 ft | 514 kts | 73° |
| 2026-04-25 19:31 | 13.17883 | -50.87170 | 40981 ft | 514 kts | 73° |
| 2026-04-25 19:32 | 13.20108 | -50.80203 | 40984 ft | 514 kts | 73° |
| 2026-04-25 19:32 | 13.21961 | -50.74391 | 40985 ft | 514 kts | 73° |
| 2026-04-25 19:33 | 13.24544 | -50.66286 | 40984 ft | 514 kts | 73° |
| 2026-04-25 19:33 | 13.26762 | -50.59317 | 40984 ft | 513 kts | 73° |
| 2026-04-25 19:34 | 13.28977 | -50.52348 | 40983 ft | 513 kts | 73° |
| 2026-04-25 19:34 | 13.31191 | -50.45379 | 40986 ft | 513 kts | 73° |
| 2026-04-25 19:35 | 13.33394 | -50.38434 | 40985 ft | 514 kts | 73° |
| 2026-04-25 19:35 | 13.35608 | -50.31449 | 40984 ft | 513 kts | 73° |
| 2026-04-25 19:36 | 13.37815 | -50.24480 | 40979 ft | 513 kts | 73° |
| 2026-04-25 19:36 | 13.40019 | -50.17510 | 40973 ft | 512 kts | 73° |
| 2026-04-25 19:37 | 13.42206 | -50.10589 | 40976 ft | 514 kts | 73° |
| 2026-04-25 19:37 | 13.44415 | -50.03590 | 40981 ft | 515 kts | 73° |
| 2026-04-25 19:38 | 13.46626 | -49.96576 | 40990 ft | 516 kts | 73° |
| 2026-04-25 19:38 | 13.48833 | -49.89569 | 40986 ft | 515 kts | 73° |
| 2026-04-25 19:39 | 13.51026 | -49.82598 | 40984 ft | 516 kts | 73° |
| 2026-04-25 19:39 | 13.53234 | -49.75573 | 40986 ft | 516 kts | 73° |
| 2026-04-25 19:40 | 13.55436 | -49.68560 | 40984 ft | 516 kts | 73° |
| 2026-04-25 19:40 | 13.57640 | -49.61532 | 40984 ft | 516 kts | 73° |
| 2026-04-25 19:41 | 13.59839 | -49.54511 | 40987 ft | 516 kts | 73° |
| 2026-04-25 19:41 | 13.61297 | -49.49853 | 40987 ft | 515 kts | 73° |
| 2026-04-25 19:42 | 13.64208 | -49.40542 | 40979 ft | 512 kts | 73° |
| 2026-04-25 19:42 | 13.66395 | -49.33538 | 40981 ft | 515 kts | 73° |
| 2026-04-25 19:43 | 13.68587 | -49.26513 | 40983 ft | 515 kts | 73° |
| 2026-04-25 19:43 | 13.70772 | -49.19498 | 40982 ft | 514 kts | 73° |
| 2026-04-25 19:44 | 13.72952 | -49.12495 | 40979 ft | 514 kts | 73° |
| 2026-04-25 19:44 | 13.75126 | -49.05500 | 40979 ft | 513 kts | 73° |
| 2026-04-25 19:45 | 13.77300 | -48.98500 | 40979 ft | 514 kts | 73° |
| 2026-04-25 19:45 | 13.79474 | -48.91494 | 40981 ft | 514 kts | 73° |
| 2026-04-25 19:46 | 13.81644 | -48.84490 | 40983 ft | 514 kts | 73° |
| 2026-04-25 19:46 | 13.83801 | -48.77521 | 40982 ft | 514 kts | 73° |
| 2026-04-25 19:47 | 13.85967 | -48.70518 | 40984 ft | 514 kts | 73° |
| 2026-04-25 19:47 | 13.88131 | -48.63511 | 40986 ft | 514 kts | 73° |
| 2026-04-25 19:48 | 13.90295 | -48.56495 | 40988 ft | 514 kts | 73° |
| 2026-04-25 19:48 | 13.92456 | -48.49484 | 40989 ft | 514 kts | 73° |
| 2026-04-25 19:49 | 13.93886 | -48.44839 | 40991 ft | 514 kts | 73° |
| 2026-04-25 19:49 | 13.96772 | -48.35454 | 40992 ft | 514 kts | 73° |
| 2026-04-25 19:50 | 13.99995 | -48.24959 | 40992 ft | 516 kts | 73° |
| 2026-04-25 19:51 | 14.02154 | -48.17916 | 40993 ft | 514 kts | 73° |
| 2026-04-25 19:51 | 14.04304 | -48.10897 | 40990 ft | 514 kts | 73° |
| 2026-04-25 19:52 | 14.06455 | -48.03866 | 40995 ft | 514 kts | 73° |
| 2026-04-25 19:52 | 14.08603 | -47.96835 | 40996 ft | 514 kts | 73° |
| 2026-04-25 19:53 | 14.10750 | -47.89803 | 40996 ft | 514 kts | 73° |
| 2026-04-25 19:53 | 14.12879 | -47.82818 | 40996 ft | 514 kts | 73° |
| 2026-04-25 19:54 | 14.15025 | -47.75774 | 40998 ft | 515 kts | 73° |
| 2026-04-25 19:54 | 14.17173 | -47.68711 | 41000 ft | 516 kts | 73° |
| 2026-04-25 19:55 | 14.19317 | -47.61653 | 40998 ft | 516 kts | 73° |
| 2026-04-25 19:55 | 14.21461 | -47.54591 | 41000 ft | 516 kts | 73° |
| 2026-04-25 19:56 | 14.23604 | -47.47521 | 41002 ft | 516 kts | 73° |
| 2026-04-25 19:56 | 14.25733 | -47.40489 | 41002 ft | 516 kts | 73° |
| 2026-04-25 19:57 | 14.27869 | -47.33426 | 41002 ft | 516 kts | 73° |
| 2026-04-25 19:57 | 14.30004 | -47.26358 | 41003 ft | 517 kts | 73° |
| 2026-04-25 19:58 | 14.32140 | -47.19279 | 41002 ft | 517 kts | 73° |
| 2026-04-25 19:58 | 14.34275 | -47.12198 | 41001 ft | 517 kts | 73° |
| 2026-04-25 19:59 | 14.36393 | -47.05159 | 41002 ft | 517 kts | 73° |
| 2026-04-25 19:59 | 14.38525 | -46.98071 | 41002 ft | 517 kts | 73° |
| 2026-04-25 20:00 | 14.40654 | -46.90980 | 41001 ft | 517 kts | 73° |
| 2026-04-25 20:00 | 14.42783 | -46.83882 | 41002 ft | 517 kts | 73° |
| 2026-04-25 20:01 | 14.45962 | -46.73268 | 41007 ft | 518 kts | 73° |
| 2026-04-25 20:01 | 14.48088 | -46.66160 | 41013 ft | 518 kts | 73° |
| 2026-04-25 20:02 | 14.49854 | -46.60248 | 41009 ft | 518 kts | 73° |
| 2026-04-25 20:02 | 14.51978 | -46.53131 | 41009 ft | 518 kts | 73° |
| 2026-04-25 20:03 | 14.54446 | -46.44851 | 41009 ft | 519 kts | 73° |
| 2026-04-25 20:03 | 14.56208 | -46.38933 | 41009 ft | 518 kts | 73° |
| 2026-04-25 20:04 | 14.58322 | -46.31820 | 41004 ft | 518 kts | 73° |
| 2026-04-25 20:04 | 14.60440 | -46.24689 | 41006 ft | 520 kts | 73° |
| 2026-04-25 20:05 | 14.62560 | -46.17542 | 41010 ft | 520 kts | 73° |
| 2026-04-25 20:05 | 14.64679 | -46.10390 | 41013 ft | 520 kts | 73° |
| 2026-04-25 20:06 | 14.66792 | -46.03248 | 41011 ft | 520 kts | 73° |
| 2026-04-25 20:06 | 14.68902 | -45.96108 | 41007 ft | 519 kts | 73° |
| 2026-04-25 20:07 | 14.70998 | -45.89010 | 41008 ft | 520 kts | 73° |
| 2026-04-25 20:07 | 14.73105 | -45.81861 | 41010 ft | 520 kts | 73° |
| 2026-04-25 20:08 | 14.75211 | -45.74710 | 41012 ft | 521 kts | 73° |
| 2026-04-25 20:08 | 14.77319 | -45.67542 | 41013 ft | 521 kts | 73° |
| 2026-04-25 20:09 | 14.79423 | -45.60378 | 41016 ft | 521 kts | 73° |
| 2026-04-25 20:09 | 14.81526 | -45.53209 | 41019 ft | 521 kts | 73° |
| 2026-04-25 20:10 | 14.83626 | -45.46040 | 41015 ft | 521 kts | 73° |
| 2026-04-25 20:10 | 14.85722 | -45.38877 | 41015 ft | 520 kts | 73° |
| 2026-04-25 20:11 | 14.87803 | -45.31756 | 41020 ft | 520 kts | 73° |
| 2026-04-25 20:11 | 14.89897 | -45.24582 | 41017 ft | 522 kts | 73° |
| 2026-04-25 20:12 | 14.91995 | -45.17385 | 41017 ft | 522 kts | 73° |
| 2026-04-25 20:12 | 14.93733 | -45.11417 | 41016 ft | 521 kts | 73° |
| 2026-04-25 20:13 | 14.96175 | -45.03021 | 41016 ft | 521 kts | 73° |
| 2026-04-25 20:13 | 14.98263 | -44.95831 | 41016 ft | 521 kts | 73° |
| 2026-04-25 20:14 | 15.00331 | -44.88700 | 41016 ft | 521 kts | 73° |
| 2026-04-25 20:14 | 15.02412 | -44.81515 | 41016 ft | 521 kts | 73° |
| 2026-04-25 20:15 | 15.04490 | -44.74333 | 41018 ft | 521 kts | 73° |
| 2026-04-25 20:15 | 15.06567 | -44.67144 | 41014 ft | 521 kts | 73° |
| 2026-04-25 20:16 | 15.08638 | -44.59967 | 41021 ft | 520 kts | 73° |
| 2026-04-25 20:16 | 15.10704 | -44.52798 | 41019 ft | 520 kts | 73° |
| 2026-04-25 20:17 | 15.12766 | -44.45633 | 41017 ft | 519 kts | 73° |
| 2026-04-25 20:17 | 15.14813 | -44.38515 | 41015 ft | 519 kts | 73° |
| 2026-04-25 20:18 | 15.16874 | -44.31334 | 41014 ft | 519 kts | 73° |
| 2026-04-25 20:18 | 15.18935 | -44.24147 | 41017 ft | 521 kts | 73° |
| 2026-04-25 20:19 | 15.20984 | -44.16991 | 41024 ft | 522 kts | 73° |
| 2026-04-25 20:19 | 15.23049 | -44.09770 | 41029 ft | 523 kts | 73° |
| 2026-04-25 20:20 | 15.25115 | -44.02533 | 41027 ft | 523 kts | 73° |
| 2026-04-25 20:20 | 15.27175 | -43.95312 | 41026 ft | 522 kts | 73° |
| 2026-04-25 20:21 | 15.29217 | -43.88144 | 41027 ft | 522 kts | 73° |
| 2026-04-25 20:21 | 15.31275 | -43.80907 | 41027 ft | 522 kts | 73° |
| 2026-04-25 20:22 | 15.32984 | -43.74893 | 41035 ft | 523 kts | 73° |
| 2026-04-25 20:22 | 15.35374 | -43.66468 | 41035 ft | 524 kts | 73° |
| 2026-04-25 20:23 | 15.37426 | -43.59228 | 41032 ft | 523 kts | 73° |
| 2026-04-25 20:23 | 15.39472 | -43.51998 | 41030 ft | 522 kts | 73° |
| 2026-04-25 20:24 | 15.41514 | -43.44770 | 41024 ft | 522 kts | 73° |
| 2026-04-25 20:24 | 15.43555 | -43.37537 | 41026 ft | 523 kts | 73° |
| 2026-04-25 20:25 | 15.45599 | -43.30283 | 41035 ft | 525 kts | 73° |
| 2026-04-25 20:25 | 15.47646 | -43.23009 | 41033 ft | 525 kts | 73° |
| 2026-04-25 20:26 | 15.49691 | -43.15733 | 41034 ft | 526 kts | 73° |
| 2026-04-25 20:26 | 15.51723 | -43.08492 | 41036 ft | 526 kts | 73° |
| 2026-04-25 20:27 | 15.53768 | -43.01195 | 41029 ft | 526 kts | 73° |
| 2026-04-25 20:27 | 15.55806 | -42.93916 | 41030 ft | 525 kts | 73° |
| 2026-04-25 20:28 | 15.57842 | -42.86633 | 41029 ft | 525 kts | 73° |
| 2026-04-25 20:28 | 15.59872 | -42.79358 | 41029 ft | 525 kts | 73° |
| 2026-04-25 20:29 | 15.61900 | -42.72083 | 41029 ft | 524 kts | 73° |
| 2026-04-25 20:29 | 15.63911 | -42.64858 | 41028 ft | 524 kts | 73° |
| 2026-04-25 20:30 | 15.65937 | -42.57570 | 41024 ft | 524 kts | 73° |
| 2026-04-25 20:30 | 15.67955 | -42.50304 | 41027 ft | 524 kts | 73° |
| 2026-04-25 20:31 | 15.69968 | -42.43041 | 41026 ft | 523 kts | 73° |
| 2026-04-25 20:31 | 15.71967 | -42.35819 | 41025 ft | 523 kts | 73° |
| 2026-04-25 20:32 | 15.73978 | -42.28544 | 41030 ft | 523 kts | 73° |
| 2026-04-25 20:32 | 15.75983 | -42.21283 | 41026 ft | 522 kts | 73° |
| 2026-04-25 20:33 | 15.77971 | -42.14069 | 41035 ft | 523 kts | 73° |
| 2026-04-25 20:33 | 15.79637 | -42.08021 | 41038 ft | 524 kts | 73° |
| 2026-04-25 20:34 | 15.81979 | -41.99500 | 41049 ft | 526 kts | 73° |
| 2026-04-25 20:34 | 15.83976 | -41.92225 | 41047 ft | 527 kts | 73° |
| 2026-04-25 20:35 | 15.85980 | -41.84917 | 41050 ft | 524 kts | 73° |
| 2026-04-25 20:35 | 15.87971 | -41.77643 | 41045 ft | 522 kts | 73° |
| 2026-04-25 20:36 | 15.89964 | -41.70352 | 41043 ft | 525 kts | 73° |
| 2026-04-25 20:36 | 15.91959 | -41.63040 | 41048 ft | 527 kts | 73° |
| 2026-04-25 20:37 | 15.93951 | -41.55732 | 41049 ft | 525 kts | 73° |
| 2026-04-25 20:37 | 15.95932 | -41.48457 | 41047 ft | 525 kts | 73° |
| 2026-04-25 20:38 | 15.97920 | -41.41139 | 41046 ft | 525 kts | 73° |
| 2026-04-25 20:38 | 15.99891 | -41.33880 | 41049 ft | 525 kts | 73° |
| 2026-04-25 20:39 | 16.01873 | -41.26564 | 41053 ft | 527 kts | 73° |
| 2026-04-25 20:39 | 16.03204 | -41.21646 | 41056 ft | 528 kts | 73° |
| 2026-04-25 20:40 | 16.05848 | -41.11863 | 41057 ft | 526 kts | 73° |
| 2026-04-25 20:40 | 16.07816 | -41.04572 | 41054 ft | 525 kts | 73° |
| 2026-04-25 20:41 | 16.09782 | -40.97274 | 41046 ft | 524 kts | 73° |
| 2026-04-25 20:41 | 16.11747 | -40.89970 | 41048 ft | 525 kts | 73° |
| 2026-04-25 20:42 | 16.13718 | -40.82636 | 41059 ft | 528 kts | 73° |
| 2026-04-25 20:42 | 16.15691 | -40.75278 | 41061 ft | 527 kts | 73° |
| 2026-04-25 20:43 | 16.17656 | -40.67943 | 41059 ft | 526 kts | 73° |
| 2026-04-25 20:43 | 16.19606 | -40.60653 | 41058 ft | 526 kts | 73° |
| 2026-04-25 20:44 | 16.21566 | -40.53312 | 41056 ft | 526 kts | 73° |
| 2026-04-25 20:44 | 16.23525 | -40.45968 | 41058 ft | 527 kts | 73° |
| 2026-04-25 20:45 | 16.25486 | -40.38604 | 41062 ft | 528 kts | 73° |
| 2026-04-25 20:45 | 16.27445 | -40.31235 | 41065 ft | 528 kts | 73° |
| 2026-04-25 20:46 | 16.29403 | -40.23857 | 41062 ft | 528 kts | 73° |
| 2026-04-25 20:46 | 16.31349 | -40.16516 | 41063 ft | 529 kts | 73° |
| 2026-04-25 20:47 | 16.33308 | -40.09116 | 41063 ft | 529 kts | 73° |
| 2026-04-25 20:47 | 16.35262 | -40.01720 | 41065 ft | 530 kts | 73° |
| 2026-04-25 20:48 | 16.37216 | -39.94315 | 41063 ft | 530 kts | 73° |
| 2026-04-25 20:48 | 16.39169 | -39.86902 | 41063 ft | 529 kts | 73° |
| 2026-04-25 20:49 | 16.41099 | -39.79565 | 41058 ft | 527 kts | 73° |
| 2026-04-25 20:49 | 16.43031 | -39.72211 | 41049 ft | 526 kts | 73° |
| 2026-04-25 20:50 | 16.44642 | -39.66071 | 41050 ft | 528 kts | 73° |
| 2026-04-25 20:50 | 16.46579 | -39.58674 | 41052 ft | 529 kts | 73° |
| 2026-04-25 20:51 | 16.48834 | -39.50050 | 41062 ft | 530 kts | 73° |
| 2026-04-25 20:51 | 16.50455 | -39.43840 | 41060 ft | 529 kts | 73° |
| 2026-04-25 20:52 | 16.52054 | -39.37708 | 41058 ft | 528 kts | 73° |
| 2026-04-25 20:52 | 16.54302 | -39.29074 | 41055 ft | 528 kts | 73° |
| 2026-04-25 20:53 | 16.56229 | -39.21663 | 41066 ft | 531 kts | 73° |
| 2026-04-25 20:53 | 16.58147 | -39.14271 | 41069 ft | 530 kts | 73° |
| 2026-04-25 20:54 | 16.60069 | -39.06853 | 41065 ft | 530 kts | 73° |
| 2026-04-25 20:54 | 16.61990 | -38.99427 | 41069 ft | 531 kts | 73° |
| 2026-04-25 20:55 | 16.63913 | -38.91981 | 41067 ft | 531 kts | 73° |
| 2026-04-25 20:55 | 16.65833 | -38.84537 | 41072 ft | 531 kts | 73° |
| 2026-04-25 20:56 | 16.67736 | -38.77147 | 41067 ft | 531 kts | 73° |
| 2026-04-25 20:56 | 16.69651 | -38.69698 | 41067 ft | 531 kts | 73° |
| 2026-04-25 20:57 | 16.71560 | -38.62257 | 41069 ft | 530 kts | 73° |
| 2026-04-25 20:57 | 16.73465 | -38.54823 | 41068 ft | 530 kts | 73° |
| 2026-04-25 20:58 | 16.75353 | -38.47443 | 41066 ft | 530 kts | 73° |
| 2026-04-25 20:58 | 16.77251 | -38.40013 | 41071 ft | 530 kts | 73° |
| 2026-04-25 20:59 | 16.79150 | -38.32566 | 41073 ft | 531 kts | 73° |
| 2026-04-25 20:59 | 16.81050 | -38.25104 | 41072 ft | 532 kts | 74° |
| 2026-04-25 21:00 | 16.82630 | -38.18889 | 41070 ft | 532 kts | 73° |
| 2026-04-25 21:01 | 16.85782 | -38.06466 | 41071 ft | 532 kts | 74° |
| 2026-04-25 21:01 | 16.87679 | -37.98975 | 41072 ft | 533 kts | 74° |
| 2026-04-25 21:02 | 16.89571 | -37.91487 | 41064 ft | 534 kts | 74° |
| 2026-04-25 21:02 | 16.91463 | -37.83989 | 41065 ft | 533 kts | 74° |
| 2026-04-25 21:03 | 16.93334 | -37.76562 | 41064 ft | 532 kts | 74° |
| 2026-04-25 21:03 | 16.95212 | -37.69097 | 41063 ft | 531 kts | 74° |
| 2026-04-25 21:04 | 16.97091 | -37.61616 | 41068 ft | 533 kts | 74° |
| 2026-04-25 21:04 | 16.98972 | -37.54110 | 41068 ft | 534 kts | 74° |
| 2026-04-25 21:05 | 16.99887 | -37.46429 | 41105 ft | 536 kts | 91° |
| 2026-04-25 21:05 | 16.99623 | -37.38671 | 41085 ft | 537 kts | 92° |
| 2026-04-25 21:06 | 16.99358 | -37.30882 | 41078 ft | 536 kts | 91° |
| 2026-04-25 21:06 | 16.99095 | -37.23100 | 41077 ft | 536 kts | 92° |
| 2026-04-25 21:07 | 16.98823 | -37.15311 | 41073 ft | 537 kts | 91° |
| 2026-04-25 21:07 | 16.98552 | -37.07490 | 41086 ft | 538 kts | 92° |
| 2026-04-25 21:08 | 16.98276 | -36.99730 | 41079 ft | 538 kts | 91° |
| 2026-04-25 21:08 | 16.97999 | -36.91927 | 41079 ft | 538 kts | 91° |
| 2026-04-25 21:09 | 16.97574 | -36.80213 | 41082 ft | 539 kts | 91° |
| 2026-04-25 21:09 | 16.97287 | -36.72377 | 41082 ft | 540 kts | 91° |
| 2026-04-25 21:10 | 16.96996 | -36.64529 | 41083 ft | 539 kts | 92° |
| 2026-04-25 21:10 | 16.96704 | -36.56725 | 41068 ft | 536 kts | 92° |
| 2026-04-25 21:11 | 16.96411 | -36.48963 | 41065 ft | 534 kts | 92° |
| 2026-04-25 21:11 | 16.96114 | -36.41189 | 41066 ft | 536 kts | 92° |
| 2026-04-25 21:12 | 16.95816 | -36.33456 | 41072 ft | 537 kts | 92° |
| 2026-04-25 21:12 | 16.95563 | -36.26955 | 41078 ft | 538 kts | 92° |
| 2026-04-25 21:13 | 16.95204 | -36.17825 | 41078 ft | 539 kts | 92° |
| 2026-04-25 21:13 | 16.94894 | -36.10012 | 41073 ft | 537 kts | 92° |
| 2026-04-25 21:14 | 16.94584 | -36.02282 | 41074 ft | 535 kts | 92° |
| 2026-04-25 21:14 | 16.94269 | -35.94496 | 41074 ft | 538 kts | 92° |
| 2026-04-25 21:15 | 16.93950 | -35.86688 | 41078 ft | 538 kts | 92° |
| 2026-04-25 21:15 | 16.93627 | -35.78875 | 41076 ft | 538 kts | 92° |
| 2026-04-25 21:16 | 16.93304 | -35.71100 | 41080 ft | 539 kts | 92° |
| 2026-04-25 21:16 | 16.92975 | -35.63266 | 41081 ft | 541 kts | 92° |
| 2026-04-25 21:17 | 16.92643 | -35.55430 | 41084 ft | 539 kts | 92° |
| 2026-04-25 21:17 | 16.92309 | -35.47618 | 41079 ft | 538 kts | 92° |
| 2026-04-25 21:18 | 16.91972 | -35.39802 | 41069 ft | 538 kts | 92° |
| 2026-04-25 21:18 | 16.91632 | -35.32001 | 41074 ft | 536 kts | 92° |
| 2026-04-25 21:19 | 16.91291 | -35.24218 | 41072 ft | 537 kts | 92° |
| 2026-04-25 21:19 | 16.90947 | -35.16452 | 41073 ft | 539 kts | 92° |
| 2026-04-25 21:20 | 16.90654 | -35.09898 | 41079 ft | 539 kts | 92° |
| 2026-04-25 21:20 | 16.90245 | -35.00794 | 41078 ft | 540 kts | 92° |
| 2026-04-25 21:21 | 16.89889 | -34.92955 | 41085 ft | 541 kts | 92° |
| 2026-04-25 21:21 | 16.89529 | -34.85097 | 41080 ft | 541 kts | 92° |
| 2026-04-25 21:22 | 16.89167 | -34.77271 | 41080 ft | 539 kts | 92° |
| 2026-04-25 21:22 | 16.88803 | -34.69443 | 41079 ft | 540 kts | 92° |
| 2026-04-25 21:23 | 16.88437 | -34.61646 | 41081 ft | 541 kts | 92° |
| 2026-04-25 21:23 | 16.88065 | -34.53787 | 41086 ft | 541 kts | 92° |
| 2026-04-25 21:24 | 16.87690 | -34.45927 | 41083 ft | 542 kts | 92° |
| 2026-04-25 21:24 | 16.87311 | -34.38065 | 41083 ft | 543 kts | 92° |
| 2026-04-25 21:25 | 16.86929 | -34.30189 | 41079 ft | 542 kts | 92° |
| 2026-04-25 21:25 | 16.86546 | -34.22331 | 41070 ft | 541 kts | 92° |
| 2026-04-25 21:26 | 16.86163 | -34.14569 | 41074 ft | 538 kts | 92° |
| 2026-04-25 21:26 | 16.85776 | -34.06754 | 41072 ft | 539 kts | 92° |
| 2026-04-25 21:27 | 16.85385 | -33.98933 | 41073 ft | 539 kts | 92° |
| 2026-04-25 21:27 | 16.84989 | -33.91094 | 41072 ft | 540 kts | 92° |
| 2026-04-25 21:28 | 16.84592 | -33.83268 | 41071 ft | 540 kts | 92° |
| 2026-04-25 21:28 | 16.84191 | -33.75432 | 41072 ft | 541 kts | 92° |
| 2026-04-25 21:29 | 16.83789 | -33.67633 | 41083 ft | 541 kts | 92° |
| 2026-04-25 21:29 | 16.83381 | -33.59768 | 41081 ft | 543 kts | 92° |
| 2026-04-25 21:30 | 16.82970 | -33.51911 | 41073 ft | 541 kts | 92° |
| 2026-04-25 21:30 | 16.82628 | -33.45395 | 41072 ft | 540 kts | 92° |
| 2026-04-25 21:31 | 16.82142 | -33.36231 | 41077 ft | 542 kts | 92° |
| 2026-04-25 21:31 | 16.81721 | -33.28356 | 41076 ft | 543 kts | 92° |
| 2026-04-25 21:32 | 16.81299 | -33.20529 | 41078 ft | 543 kts | 92° |
| 2026-04-25 21:32 | 16.80872 | -33.12649 | 41076 ft | 544 kts | 92° |
| 2026-04-25 21:33 | 16.80441 | -33.04744 | 41083 ft | 545 kts | 92° |
| 2026-04-25 21:33 | 16.80007 | -32.96839 | 41063 ft | 543 kts | 93° |
| 2026-04-25 21:34 | 16.79573 | -32.89015 | 41056 ft | 539 kts | 93° |
| 2026-04-25 21:34 | 16.79137 | -32.81180 | 41068 ft | 542 kts | 93° |
| 2026-04-25 21:35 | 16.78696 | -32.73325 | 41066 ft | 542 kts | 93° |
| 2026-04-25 21:35 | 16.78256 | -32.65533 | 41066 ft | 541 kts | 93° |
| 2026-04-25 21:36 | 16.77810 | -32.57695 | 41069 ft | 541 kts | 93° |
| 2026-04-25 21:36 | 16.77360 | -32.49836 | 41067 ft | 542 kts | 93° |
| 2026-04-25 21:37 | 16.77057 | -32.44567 | 41066 ft | 543 kts | 93° |
| 2026-04-25 21:37 | 16.76527 | -32.35426 | 41070 ft | 543 kts | 93° |
| 2026-04-25 21:38 | 16.75993 | -32.26273 | 41067 ft | 544 kts | 93° |
| 2026-04-25 21:38 | 16.75529 | -32.18382 | 41067 ft | 544 kts | 93° |
| 2026-04-25 21:39 | 16.75142 | -32.11834 | 41072 ft | 542 kts | 93° |
| 2026-04-25 21:39 | 16.74675 | -32.03982 | 41072 ft | 542 kts | 93° |
| 2026-04-25 21:40 | 16.74204 | -31.96114 | 41072 ft | 545 kts | 93° |
| 2026-04-25 21:40 | 16.73728 | -31.88214 | 41070 ft | 544 kts | 93° |
| 2026-04-25 21:41 | 16.73252 | -31.80374 | 41070 ft | 543 kts | 93° |
| 2026-04-25 21:41 | 16.72771 | -31.72486 | 41071 ft | 544 kts | 93° |
| 2026-04-25 21:42 | 16.72288 | -31.64623 | 41062 ft | 542 kts | 93° |
| 2026-04-25 21:42 | 16.71806 | -31.56820 | 41064 ft | 542 kts | 93° |
| 2026-04-25 21:43 | 16.71319 | -31.48971 | 41068 ft | 542 kts | 93° |
| 2026-04-25 21:43 | 16.70826 | -31.41096 | 41071 ft | 544 kts | 93° |
| 2026-04-25 21:44 | 16.70331 | -31.33223 | 41064 ft | 544 kts | 93° |
| 2026-04-25 21:45 | 16.69580 | -31.21382 | 41071 ft | 545 kts | 93° |
| 2026-04-25 21:45 | 16.69077 | -31.13500 | 41068 ft | 544 kts | 93° |
| 2026-04-25 21:46 | 16.68571 | -31.05631 | 41066 ft | 544 kts | 93° |
| 2026-04-25 21:46 | 16.68066 | -30.97811 | 41065 ft | 543 kts | 93° |
| 2026-04-25 21:47 | 16.67553 | -30.89929 | 41066 ft | 544 kts | 93° |
| 2026-04-25 21:47 | 16.67038 | -30.82042 | 41063 ft | 545 kts | 93° |
| 2026-04-25 21:48 | 16.66518 | -30.74146 | 41067 ft | 546 kts | 93° |
| 2026-04-25 21:48 | 16.65998 | -30.66285 | 41063 ft | 547 kts | 93° |
| 2026-04-25 21:49 | 16.65471 | -30.58359 | 41064 ft | 546 kts | 94° |
| 2026-04-25 21:49 | 16.64943 | -30.50471 | 41059 ft | 544 kts | 94° |
| 2026-04-25 21:50 | 16.64414 | -30.42615 | 41058 ft | 543 kts | 94° |
| 2026-04-25 21:50 | 16.63883 | -30.34769 | 41059 ft | 542 kts | 94° |
| 2026-04-25 21:51 | 16.63349 | -30.26921 | 41062 ft | 544 kts | 94° |
| 2026-04-25 21:51 | 16.62813 | -30.19084 | 41065 ft | 545 kts | 94° |
| 2026-04-25 21:52 | 16.62271 | -30.11208 | 41074 ft | 543 kts | 94° |
| 2026-04-25 21:52 | 16.61726 | -30.03341 | 41064 ft | 545 kts | 94° |
| 2026-04-25 21:53 | 16.61177 | -29.95445 | 41062 ft | 546 kts | 94° |
| 2026-04-25 21:53 | 16.60623 | -29.87532 | 41059 ft | 546 kts | 94° |
| 2026-04-25 21:54 | 16.60072 | -29.79694 | 41060 ft | 545 kts | 94° |
| 2026-04-25 21:54 | 16.59514 | -29.71808 | 41058 ft | 546 kts | 94° |
| 2026-04-25 21:55 | 16.58952 | -29.63903 | 41055 ft | 546 kts | 94° |
| 2026-04-25 21:55 | 16.58388 | -29.56015 | 41054 ft | 546 kts | 94° |
| 2026-04-25 21:56 | 16.57821 | -29.48114 | 41057 ft | 546 kts | 94° |
| 2026-04-25 21:56 | 16.57252 | -29.40247 | 41059 ft | 548 kts | 94° |
| 2026-04-25 21:57 | 16.56677 | -29.32329 | 41057 ft | 548 kts | 94° |
| 2026-04-25 21:57 | 16.56099 | -29.24417 | 41057 ft | 546 kts | 94° |
| 2026-04-25 21:58 | 16.55519 | -29.16511 | 41055 ft | 547 kts | 94° |
| 2026-04-25 21:58 | 16.54939 | -29.08648 | 41054 ft | 548 kts | 94° |
| 2026-04-25 21:59 | 16.54354 | -29.00755 | 41040 ft | 543 kts | 94° |
| 2026-04-25 21:59 | 16.53768 | -28.92891 | 41045 ft | 544 kts | 94° |
| 2026-04-25 22:00 | 16.52884 | -28.81116 | 41046 ft | 545 kts | 94° |
| 2026-04-25 22:00 | 16.52289 | -28.73225 | 41040 ft | 545 kts | 94° |
| 2026-04-25 22:01 | 16.51691 | -28.65344 | 41051 ft | 545 kts | 94° |
| 2026-04-25 22:01 | 16.51192 | -28.58799 | 41047 ft | 545 kts | 94° |
| 2026-04-25 22:02 | 16.50486 | -28.49578 | 41053 ft | 546 kts | 94° |
| 2026-04-25 22:02 | 16.49878 | -28.41681 | 41052 ft | 547 kts | 94° |
| 2026-04-25 22:03 | 16.49270 | -28.33826 | 41050 ft | 547 kts | 94° |
| 2026-04-25 22:03 | 16.48656 | -28.25928 | 41051 ft | 546 kts | 95° |
| 2026-04-25 22:04 | 16.48041 | -28.18060 | 41038 ft | 544 kts | 95° |
| 2026-04-25 22:04 | 16.47425 | -28.10210 | 41035 ft | 543 kts | 95° |
| 2026-04-25 22:05 | 16.46808 | -28.02391 | 41037 ft | 544 kts | 95° |
| 2026-04-25 22:05 | 16.46185 | -27.94529 | 41035 ft | 545 kts | 95° |
| 2026-04-25 22:06 | 16.45558 | -27.86652 | 41044 ft | 545 kts | 95° |
| 2026-04-25 22:06 | 16.44927 | -27.78770 | 41044 ft | 546 kts | 95° |
| 2026-04-25 22:07 | 16.44400 | -27.72210 | 41045 ft | 546 kts | 95° |
| 2026-04-25 22:07 | 16.43655 | -27.62998 | 41032 ft | 543 kts | 94° |
| 2026-04-25 22:08 | 16.43019 | -27.55149 | 41024 ft | 542 kts | 95° |
| 2026-04-25 22:08 | 16.42384 | -27.47371 | 41028 ft | 542 kts | 95° |
| 2026-04-25 22:09 | 16.41742 | -27.39527 | 41034 ft | 544 kts | 95° |
| 2026-04-25 22:09 | 16.41094 | -27.31657 | 41036 ft | 545 kts | 95° |
| 2026-04-25 22:10 | 16.40445 | -27.23798 | 41037 ft | 545 kts | 95° |
| 2026-04-25 22:10 | 16.39791 | -27.15930 | 41033 ft | 545 kts | 95° |
| 2026-04-25 22:11 | 16.39134 | -27.08054 | 41035 ft | 545 kts | 95° |
| 2026-04-25 22:11 | 16.38476 | -27.00192 | 41037 ft | 545 kts | 95° |
| 2026-04-25 22:12 | 16.37814 | -26.92333 | 41034 ft | 545 kts | 95° |
| 2026-04-25 22:12 | 16.37262 | -26.85799 | 41030 ft | 545 kts | 95° |
| 2026-04-25 22:13 | 16.36487 | -26.76671 | 41034 ft | 545 kts | 95° |
| 2026-04-25 22:13 | 16.35816 | -26.68809 | 41029 ft | 545 kts | 95° |
| 2026-04-25 22:14 | 16.35142 | -26.60946 | 41025 ft | 545 kts | 95° |
| 2026-04-25 22:14 | 16.34467 | -26.53092 | 41031 ft | 545 kts | 95° |
| 2026-04-25 22:15 | 16.33786 | -26.45217 | 41035 ft | 547 kts | 95° |
| 2026-04-25 22:16 | 16.32758 | -26.33388 | 41035 ft | 546 kts | 95° |
| 2026-04-25 22:16 | 16.32075 | -26.25570 | 41025 ft | 544 kts | 95° |
| 2026-04-25 22:17 | 16.31386 | -26.17722 | 41023 ft | 544 kts | 95° |
| 2026-04-25 22:17 | 16.30694 | -26.09868 | 41024 ft | 545 kts | 95° |
| 2026-04-25 22:18 | 16.29998 | -26.02003 | 41024 ft | 545 kts | 95° |
| 2026-04-25 22:18 | 16.29298 | -25.94129 | 41018 ft | 546 kts | 95° |
| 2026-04-25 22:19 | 16.28600 | -25.86308 | 41011 ft | 546 kts | 95° |
| 2026-04-25 22:19 | 16.27894 | -25.78431 | 41014 ft | 547 kts | 95° |
| 2026-04-25 22:20 | 16.27184 | -25.70543 | 41003 ft | 547 kts | 95° |
| 2026-04-25 22:20 | 16.26471 | -25.62649 | 40999 ft | 548 kts | 95° |
| 2026-04-25 22:21 | 16.25753 | -25.54744 | 40996 ft | 547 kts | 95° |
| 2026-04-25 22:21 | 16.25036 | -25.46870 | 40989 ft | 545 kts | 95° |
| 2026-04-25 22:22 | 16.24317 | -25.39020 | 40994 ft | 545 kts | 95° |
| 2026-04-25 22:22 | 16.23595 | -25.31157 | 40998 ft | 546 kts | 95° |
| 2026-04-25 22:23 | 16.22870 | -25.23301 | 40996 ft | 548 kts | 95° |
| 2026-04-25 22:23 | 16.22138 | -25.15397 | 40998 ft | 548 kts | 95° |
| 2026-04-25 22:24 | 16.21405 | -25.07514 | 40995 ft | 546 kts | 95° |
| 2026-04-25 22:24 | 16.20671 | -24.99662 | 40987 ft | 545 kts | 95° |
| 2026-04-25 22:25 | 16.19932 | -24.91782 | 40992 ft | 548 kts | 95° |
| 2026-04-25 22:25 | 16.19194 | -24.83944 | 40985 ft | 548 kts | 95° |
| 2026-04-25 22:26 | 16.18450 | -24.76070 | 40997 ft | 546 kts | 95° |
| 2026-04-25 22:26 | 16.17703 | -24.68191 | 41001 ft | 547 kts | 95° |
| 2026-04-25 22:27 | 16.17079 | -24.61640 | 40992 ft | 547 kts | 95° |
| 2026-04-25 22:27 | 16.16325 | -24.53747 | 40993 ft | 548 kts | 95° |
| 2026-04-25 22:28 | 16.15566 | -24.45843 | 40996 ft | 549 kts | 95° |
| 2026-04-25 22:28 | 16.14805 | -24.37939 | 40999 ft | 549 kts | 95° |
| 2026-04-25 22:29 | 16.14041 | -24.30042 | 40995 ft | 547 kts | 95° |
| 2026-04-25 22:29 | 16.13277 | -24.22171 | 41000 ft | 546 kts | 96° |
| 2026-04-25 22:30 | 16.12127 | -24.10384 | 41001 ft | 548 kts | 96° |
| 2026-04-25 22:30 | 16.11485 | -24.03826 | 41004 ft | 550 kts | 96° |
| 2026-04-25 22:31 | 16.10575 | -23.94573 | 41015 ft | 549 kts | 96° |
| 2026-04-25 22:31 | 16.09795 | -23.86677 | 41007 ft | 548 kts | 96° |
| 2026-04-25 22:32 | 16.09020 | -23.78859 | 41007 ft | 547 kts | 96° |
| 2026-04-25 22:32 | 16.08235 | -23.70974 | 41000 ft | 549 kts | 96° |
| 2026-04-25 22:33 | 16.07446 | -23.63073 | 41010 ft | 550 kts | 96° |
| 2026-04-25 22:33 | 16.06652 | -23.55156 | 41016 ft | 551 kts | 96° |
| 2026-04-25 22:34 | 16.05856 | -23.47241 | 41012 ft | 549 kts | 96° |
| 2026-04-25 22:34 | 16.05058 | -23.39346 | 41008 ft | 548 kts | 96° |
| 2026-04-25 22:35 | 16.04259 | -23.31466 | 40990 ft | 547 kts | 96° |
| 2026-04-25 22:35 | 16.03460 | -23.23608 | 40992 ft | 546 kts | 96° |
| 2026-04-25 22:36 | 16.02664 | -23.15813 | 40991 ft | 545 kts | 96° |
| 2026-04-25 22:36 | 16.01860 | -23.07972 | 40993 ft | 545 kts | 96° |
| 2026-04-25 22:37 | 16.01052 | -23.00121 | 40998 ft | 546 kts | 96° |
| 2026-04-25 22:37 | 16.00241 | -22.92261 | 41001 ft | 547 kts | 96° |
| 2026-04-25 22:38 | 15.99425 | -22.84387 | 40998 ft | 548 kts | 96° |
| 2026-04-25 22:38 | 15.98611 | -22.76557 | 41008 ft | 547 kts | 96° |
| 2026-04-25 22:39 | 15.97789 | -22.68680 | 41006 ft | 549 kts | 96° |
| 2026-04-25 22:39 | 15.96964 | -22.60800 | 41004 ft | 546 kts | 96° |
| 2026-04-25 22:40 | 15.96147 | -22.53033 | 40988 ft | 535 kts | 96° |
| 2026-04-25 22:40 | 15.95336 | -22.45343 | 40990 ft | 535 kts | 96° |
| 2026-04-25 22:41 | 15.94519 | -22.37620 | 40989 ft | 538 kts | 96° |
| 2026-04-25 22:41 | 15.93703 | -22.29934 | 40988 ft | 538 kts | 96° |
| 2026-04-25 22:42 | 15.92879 | -22.22204 | 40988 ft | 538 kts | 96° |
| 2026-04-25 22:42 | 15.92052 | -22.14471 | 40985 ft | 538 kts | 96° |
| 2026-04-25 22:43 | 15.91222 | -22.06735 | 40991 ft | 538 kts | 96° |
| 2026-04-25 22:43 | 15.90389 | -21.98997 | 40987 ft | 538 kts | 96° |
| 2026-04-25 22:44 | 15.89554 | -21.91264 | 40989 ft | 538 kts | 96° |
| 2026-04-25 22:44 | 15.88720 | -21.83570 | 40980 ft | 538 kts | 96° |
| 2026-04-25 22:45 | 15.87885 | -21.75884 | 40986 ft | 534 kts | 96° |
| 2026-04-25 22:45 | 15.87047 | -21.68209 | 40989 ft | 535 kts | 96° |
| 2026-04-25 22:46 | 15.86206 | -21.60521 | 40987 ft | 535 kts | 96° |
| 2026-04-25 22:46 | 15.85361 | -21.52836 | 40989 ft | 536 kts | 97° |
| 2026-04-25 22:47 | 15.84514 | -21.45146 | 40991 ft | 536 kts | 97° |
| 2026-04-25 22:47 | 15.83664 | -21.37455 | 40990 ft | 536 kts | 97° |
| 2026-04-25 22:48 | 15.82816 | -21.29804 | 40993 ft | 536 kts | 97° |
| 2026-04-25 22:48 | 15.81959 | -21.22108 | 40982 ft | 536 kts | 97° |
| 2026-04-25 22:49 | 15.81100 | -21.14409 | 40983 ft | 536 kts | 97° |
| 2026-04-25 22:49 | 15.80238 | -21.06719 | 40986 ft | 536 kts | 97° |
| 2026-04-25 22:50 | 15.79375 | -20.99033 | 40982 ft | 535 kts | 97° |
| 2026-04-25 22:50 | 15.78515 | -20.91404 | 40978 ft | 534 kts | 97° |
| 2026-04-25 22:51 | 15.77647 | -20.83732 | 40971 ft | 534 kts | 97° |
| 2026-04-25 22:51 | 15.76778 | -20.76069 | 40977 ft | 535 kts | 97° |
| 2026-04-25 22:52 | 15.75903 | -20.68378 | 40980 ft | 536 kts | 97° |
| 2026-04-25 22:52 | 15.75173 | -20.61984 | 40981 ft | 537 kts | 97° |
| 2026-04-25 22:53 | 15.74149 | -20.53033 | 40985 ft | 537 kts | 97° |
| 2026-04-25 22:53 | 15.73264 | -20.45329 | 40974 ft | 538 kts | 97° |
| 2026-04-25 22:54 | 15.72373 | -20.37604 | 40978 ft | 539 kts | 97° |
| 2026-04-25 22:54 | 15.71480 | -20.29878 | 40969 ft | 538 kts | 97° |
| 2026-04-25 22:55 | 15.70591 | -20.22212 | 40960 ft | 532 kts | 97° |
| 2026-04-25 22:55 | 15.69709 | -20.14629 | 40960 ft | 533 kts | 97° |
| 2026-04-25 22:56 | 15.68816 | -20.06970 | 40966 ft | 536 kts | 97° |
| 2026-04-25 22:56 | 15.67694 | -19.99324 | 40990 ft | 535 kts | 108° |
| 2026-04-25 22:57 | 15.65179 | -19.92070 | 40976 ft | 534 kts | 112° |
| 2026-04-25 22:57 | 15.62590 | -19.84851 | 40975 ft | 533 kts | 111° |
| 2026-04-25 22:58 | 15.60024 | -19.77646 | 40971 ft | 532 kts | 112° |
| 2026-04-25 22:58 | 15.57448 | -19.70464 | 40967 ft | 531 kts | 112° |
| 2026-04-25 22:59 | 15.54894 | -19.63326 | 40962 ft | 531 kts | 112° |
| 2026-04-25 22:59 | 15.52312 | -19.56132 | 40967 ft | 533 kts | 112° |
| 2026-04-25 23:00 | 15.49723 | -19.48919 | 40964 ft | 533 kts | 112° |
| 2026-04-25 23:00 | 15.47133 | -19.41717 | 40969 ft | 533 kts | 112° |
| 2026-04-25 23:01 | 15.43981 | -19.34817 | 40954 ft | 527 kts | 119° |
| 2026-04-25 23:01 | 15.40709 | -19.28070 | 40953 ft | 526 kts | 118° |
| 2026-04-25 23:02 | 15.37441 | -19.21268 | 40950 ft | 526 kts | 118° |
| 2026-04-25 23:02 | 15.34155 | -19.14481 | 40949 ft | 526 kts | 118° |
| 2026-04-25 23:03 | 15.30879 | -19.07692 | 40951 ft | 526 kts | 118° |
| 2026-04-25 23:03 | 15.27616 | -19.00954 | 40952 ft | 527 kts | 118° |
| 2026-04-25 23:04 | 15.24866 | -18.95271 | 40949 ft | 527 kts | 118° |
| 2026-04-25 23:04 | 15.21039 | -18.87377 | 40713 ft | 525 kts | 118° |
| 2026-04-25 23:05 | 15.19426 | -18.84048 | 40559 ft | 511 kts | 119° |
| 2026-04-25 23:05 | 15.17820 | -18.80740 | 39899 ft | 519 kts | 118° |
| 2026-04-25 23:05 | 15.16193 | -18.77395 | 39237 ft | 521 kts | 118° |
| 2026-04-25 23:05 | 15.14564 | -18.74038 | 38546 ft | 523 kts | 118° |
| 2026-04-25 23:06 | 15.12925 | -18.70661 | 37797 ft | 525 kts | 118° |
| 2026-04-25 23:06 | 15.11278 | -18.67275 | 37076 ft | 527 kts | 118° |
| 2026-04-25 23:06 | 15.09644 | -18.63918 | 36378 ft | 530 kts | 118° |
| 2026-04-25 23:06 | 15.07980 | -18.60498 | 35664 ft | 533 kts | 118° |
| 2026-04-25 23:07 | 15.06307 | -18.57060 | 34966 ft | 535 kts | 118° |
| 2026-04-25 23:07 | 15.04626 | -18.53609 | 34263 ft | 536 kts | 118° |
| 2026-04-25 23:07 | 15.02960 | -18.50190 | 33519 ft | 528 kts | 117° |
| 2026-04-25 23:07 | 15.01320 | -18.46825 | 32846 ft | 518 kts | 117° |
| 2026-04-25 23:08 | 14.99708 | -18.43522 | 32171 ft | 510 kts | 117° |
| 2026-04-25 23:08 | 14.98124 | -18.40276 | 31498 ft | 502 kts | 117° |
| 2026-04-25 23:08 | 14.96579 | -18.37111 | 30856 ft | 496 kts | 117° |
| 2026-04-25 23:08 | 14.95031 | -18.33942 | 30215 ft | 491 kts | 116° |
| 2026-04-25 23:09 | 14.93498 | -18.30802 | 29530 ft | 485 kts | 116° |
| 2026-04-25 23:09 | 14.91988 | -18.27711 | 28897 ft | 477 kts | 116° |
| 2026-04-25 23:09 | 14.90502 | -18.24673 | 28284 ft | 470 kts | 116° |
| 2026-04-25 23:09 | 14.89038 | -18.21682 | 27676 ft | 462 kts | 116° |
| 2026-04-25 23:10 | 14.87599 | -18.18742 | 27084 ft | 455 kts | 116° |
| 2026-04-25 23:10 | 14.86182 | -18.15844 | 26492 ft | 448 kts | 116° |
| 2026-04-25 23:10 | 14.84786 | -18.12994 | 25916 ft | 441 kts | 116° |
| 2026-04-25 23:10 | 14.83410 | -18.10185 | 25342 ft | 435 kts | 117° |
| 2026-04-25 23:11 | 14.82070 | -18.07451 | 24788 ft | 429 kts | 117° |
| 2026-04-25 23:11 | 14.80729 | -18.04716 | 24230 ft | 423 kts | 117° |
| 2026-04-25 23:11 | 14.79404 | -18.02015 | 23664 ft | 418 kts | 117° |
| 2026-04-25 23:11 | 14.78099 | -17.99354 | 23075 ft | 412 kts | 117° |
| 2026-04-25 23:12 | 14.76811 | -17.96730 | 22521 ft | 405 kts | 117° |
| 2026-04-25 23:12 | 14.75546 | -17.94154 | 21993 ft | 398 kts | 117° |
| 2026-04-25 23:12 | 14.74304 | -17.91626 | 21470 ft | 391 kts | 117° |
| 2026-04-25 23:12 | 14.73083 | -17.89140 | 20960 ft | 385 kts | 118° |
| 2026-04-25 23:13 | 14.71881 | -17.86693 | 20452 ft | 379 kts | 118° |
| 2026-04-25 23:13 | 14.70692 | -17.84277 | 19958 ft | 376 kts | 118° |
| 2026-04-25 23:13 | 14.69507 | -17.81867 | 19469 ft | 375 kts | 118° |
| 2026-04-25 23:13 | 14.68342 | -17.79497 | 18976 ft | 374 kts | 118° |
| 2026-04-25 23:14 | 14.67169 | -17.77114 | 18479 ft | 370 kts | 118° |
| 2026-04-25 23:14 | 14.66013 | -17.74766 | 17959 ft | 364 kts | 118° |
| 2026-04-25 23:14 | 14.64870 | -17.72445 | 17478 ft | 361 kts | 118° |
| 2026-04-25 23:14 | 14.63733 | -17.70137 | 17004 ft | 359 kts | 118° |
| 2026-04-25 23:15 | 14.62968 | -17.68584 | 16689 ft | 358 kts | 119° |
| 2026-04-25 23:15 | 14.61848 | -17.66310 | 16205 ft | 352 kts | 119° |
| 2026-04-25 23:15 | 14.60760 | -17.64103 | 15830 ft | 345 kts | 119° |
| 2026-04-25 23:15 | 14.59668 | -17.61890 | 15408 ft | 347 kts | 119° |
| 2026-04-25 23:16 | 14.58574 | -17.59672 | 14956 ft | 347 kts | 119° |
| 2026-04-25 23:16 | 14.57490 | -17.57473 | 14484 ft | 340 kts | 120° |
| 2026-04-25 23:16 | 14.56428 | -17.55321 | 14051 ft | 332 kts | 119° |
| 2026-04-25 23:16 | 14.55385 | -17.53207 | 13589 ft | 329 kts | 120° |
| 2026-04-25 23:17 | 14.54345 | -17.51105 | 13130 ft | 328 kts | 119° |
| 2026-04-25 23:17 | 14.53310 | -17.49008 | 12690 ft | 328 kts | 120° |
| 2026-04-25 23:17 | 14.52285 | -17.46936 | 12244 ft | 320 kts | 120° |
| 2026-04-25 23:17 | 14.51287 | -17.44911 | 11809 ft | 315 kts | 119° |
| 2026-04-25 23:18 | 14.50303 | -17.42924 | 11392 ft | 314 kts | 119° |
| 2026-04-25 23:18 | 14.49300 | -17.40895 | 10969 ft | 312 kts | 120° |
| 2026-04-25 23:18 | 14.48328 | -17.38930 | 10539 ft | 303 kts | 119° |
| 2026-04-25 23:18 | 14.47405 | -17.37056 | 10363 ft | 288 kts | 120° |
| 2026-04-25 23:19 | 14.46517 | -17.35269 | 10146 ft | 276 kts | 120° |
| 2026-04-25 23:19 | 14.45644 | -17.33508 | 9814 ft | 275 kts | 119° |
| 2026-04-25 23:19 | 14.44768 | -17.31742 | 9462 ft | 278 kts | 119° |
| 2026-04-25 23:19 | 14.43914 | -17.30011 | 9138 ft | 272 kts | 119° |
| 2026-04-25 23:20 | 14.43047 | -17.28263 | 8809 ft | 275 kts | 119° |
| 2026-04-25 23:20 | 14.42175 | -17.26504 | 8476 ft | 276 kts | 118° |
| 2026-04-25 23:20 | 14.41313 | -17.24766 | 8145 ft | 270 kts | 118° |
| 2026-04-25 23:20 | 14.40450 | -17.23023 | 7813 ft | 274 kts | 117° |
| 2026-04-25 23:21 | 14.39579 | -17.21266 | 7488 ft | 276 kts | 117° |
| 2026-04-25 23:21 | 14.38714 | -17.19521 | 7150 ft | 270 kts | 117° |
| 2026-04-25 23:21 | 14.37888 | -17.17799 | 6923 ft | 260 kts | 111° |
| 2026-04-25 23:21 | 14.37654 | -17.16008 | 6733 ft | 246 kts | 84° |
| 2026-04-25 23:22 | 14.37693 | -17.14320 | 6658 ft | 226 kts | 90° |
| 2026-04-25 23:22 | 14.37663 | -17.12740 | 6435 ft | 216 kts | 89° |
| 2026-04-25 23:22 | 14.37664 | -17.11226 | 6179 ft | 211 kts | 88° |
| 2026-04-25 23:23 | 14.37936 | -17.08363 | 5606 ft | 192 kts | 59° |
| 2026-04-25 23:23 | 14.38910 | -17.07579 | 5374 ft | 175 kts | 16° |
| 2026-04-25 23:23 | 14.40076 | -17.07391 | 5153 ft | 166 kts | 3° |
| 2026-04-25 23:23 | 14.41220 | -17.07351 | 4928 ft | 161 kts | 1° |
| 2026-04-25 23:24 | 14.42317 | -17.07343 | 4702 ft | 157 kts | 0° |
| 2026-04-25 23:24 | 14.43420 | -17.07339 | 4497 ft | 158 kts | 0° |
| 2026-04-25 23:24 | 14.44494 | -17.07336 | 4298 ft | 151 kts | 0° |
| 2026-04-25 23:24 | 14.45516 | -17.07333 | 4097 ft | 142 kts | 0° |
| 2026-04-25 23:25 | 14.46496 | -17.07331 | 3917 ft | 137 kts | 0° |
| 2026-04-25 23:25 | 14.47439 | -17.07330 | 3740 ft | 137 kts | 1° |
| 2026-04-25 23:25 | 14.48393 | -17.07328 | 3555 ft | 135 kts | 1° |
| 2026-04-25 23:25 | 14.49335 | -17.07324 | 3385 ft | 137 kts | 1° |
| 2026-04-25 23:26 | 14.50309 | -17.07324 | 3198 ft | 138 kts | 2° |
| 2026-04-25 23:26 | 14.51254 | -17.07319 | 3012 ft | 135 kts | 1° |
| 2026-04-25 23:26 | 14.52155 | -17.07319 | 2987 ft | 129 kts | 2° |
| 2026-04-25 23:26 | 14.53078 | -17.07308 | 2997 ft | 138 kts | 2° |
| 2026-04-25 23:27 | 14.54048 | -17.07289 | 2816 ft | 145 kts | 4° |
| 2026-04-25 23:27 | 14.55029 | -17.07218 | 2518 ft | 142 kts | 5° |
| 2026-04-25 23:27 | 14.56013 | -17.07171 | 2185 ft | 141 kts | 1° |
| 2026-04-25 23:27 | 14.56969 | -17.07181 | 1955 ft | 134 kts | 1° |
| 2026-04-25 23:28 | 14.57888 | -17.07191 | 1755 ft | 134 kts | 359° |
| 2026-04-25 23:28 | 14.58811 | -17.07209 | 1571 ft | 131 kts | 0° |
| 2026-04-25 23:28 | 14.59737 | -17.07226 | 1337 ft | 133 kts | 2° |
| 2026-04-25 23:28 | 14.60658 | -17.07220 | 1135 ft | 135 kts | 0° |
| 2026-04-25 23:29 | 14.61596 | -17.07206 | 993 ft | 132 kts | 359° |
| 2026-04-25 23:29 | 14.62521 | -17.07227 | 881 ft | 132 kts | 356° |
| 2026-04-25 23:29 | 14.63451 | -17.07247 | 692 ft | 138 kts | 357° |
| 2026-04-25 23:29 | 14.64411 | -17.07261 | 545 ft | 137 kts | 0° |
| 2026-04-25 23:30 | 14.65355 | -17.07268 | 386 ft | 131 kts | 358° |
| 2026-04-25 23:30 | 14.66228 | -17.07279 | 306 ft | 118 kts | 358° |
| 2026-04-25 23:30 | 14.66900 | -17.07283 | 308 ft | 71 kts | 359° |
| 2026-04-25 23:30 | 14.67271 | -17.07285 | 307 ft | 48 kts | 359° |
| 2026-04-25 23:31 | 14.67540 | -17.07287 | 307 ft | 28 kts | 3° |
| 2026-04-25 23:31 | 14.67714 | -17.07238 | 306 ft | 17 kts | 24° |
| 2026-04-25 23:31 | 14.67800 | -17.07189 | 306 ft | 14 kts | 30° |
| 2026-04-25 23:31 | 14.67846 | -17.07142 | 307 ft | 2 kts | 78° |
| 2026-04-25 23:32 | 14.67326 | -17.09006 | 125 ft | 6763 kts | 5° |